<?xml version="1.0" encoding="utf-8"?>
<gpx xmlns:xsi="http://www.w3.org/2001/XMLSchema-instance" xmlns:xsd="http://www.w3.org/2001/XMLSchema" version="1.1" creator="Shapelink.com" xmlns="http://www.topografix.com/GPX/1/1" xmlns:gpxtpx="http://www.garmin.com/xmlschemas/TrackPointExtension/v1">
  <metadata>
    <name>Löpning 9.11 km, 2012-03-06</name>
    <desc></desc>
    <author><name>Dennis Rehn</name></author> 
    <time>2012-03-06T18:08:40Z</time>
  </metadata>
  <trk>
    <name>Löpning 9.11 km, 2012-03-06</name>
    <trkseg>
      <trkpt lat="59.9895091703" lon="23.4083093234">
        <ele>0</ele>
        <time>2012-03-06T18:08:40Z</time>
      </trkpt>
      <trkpt lat="59.9894809233" lon="23.4083231535">
        <ele>0</ele>
        <time>2012-03-06T18:08:41Z</time>
      </trkpt>
      <trkpt lat="59.9893410294" lon="23.4085565894">
        <ele>0</ele>
        <time>2012-03-06T18:08:47Z</time>
      </trkpt>
      <trkpt lat="59.989297192" lon="23.4086949746">
        <ele>0</ele>
        <time>2012-03-06T18:08:50Z</time>
      </trkpt>
      <trkpt lat="59.9891924183" lon="23.4087426676">
        <ele>0</ele>
        <time>2012-03-06T18:08:54Z</time>
      </trkpt>
      <trkpt lat="59.9890608224" lon="23.4086039472">
        <ele>0</ele>
        <time>2012-03-06T18:09:00Z</time>
      </trkpt>
      <trkpt lat="59.9889884028" lon="23.4085279233">
        <ele>0</ele>
        <time>2012-03-06T18:09:03Z</time>
      </trkpt>
      <trkpt lat="59.9887966249" lon="23.4083619617">
        <ele>0</ele>
        <time>2012-03-06T18:09:10Z</time>
      </trkpt>
      <trkpt lat="59.9886619278" lon="23.4082409271">
        <ele>0</ele>
        <time>2012-03-06T18:09:15Z</time>
      </trkpt>
      <trkpt lat="59.9885335171" lon="23.4080725347">
        <ele>1</ele>
        <time>2012-03-06T18:09:20Z</time>
      </trkpt>
      <trkpt lat="59.9884069504" lon="23.407826945">
        <ele>2.4</ele>
        <time>2012-03-06T18:09:26Z</time>
      </trkpt>
      <trkpt lat="59.9883135761" lon="23.4076251089">
        <ele>3</ele>
        <time>2012-03-06T18:09:31Z</time>
      </trkpt>
      <trkpt lat="59.9881813097" lon="23.4073915053">
        <ele>3.6</ele>
        <time>2012-03-06T18:09:37Z</time>
      </trkpt>
      <trkpt lat="59.9880912881" lon="23.4072780144">
        <ele>3.6</ele>
        <time>2012-03-06T18:09:41Z</time>
      </trkpt>
      <trkpt lat="59.9879694991" lon="23.4071154055">
        <ele>3.8</ele>
        <time>2012-03-06T18:09:46Z</time>
      </trkpt>
      <trkpt lat="59.9878477939" lon="23.4069353623">
        <ele>4</ele>
        <time>2012-03-06T18:09:51Z</time>
      </trkpt>
      <trkpt lat="59.9877462052" lon="23.4068341928">
        <ele>4</ele>
        <time>2012-03-06T18:09:56Z</time>
      </trkpt>
      <trkpt lat="59.9876202253" lon="23.4067986535">
        <ele>4</ele>
        <time>2012-03-06T18:10:00Z</time>
      </trkpt>
      <trkpt lat="59.9875081593" lon="23.4068297504">
        <ele>4</ele>
        <time>2012-03-06T18:10:04Z</time>
      </trkpt>
      <trkpt lat="59.9873623142" lon="23.406951707">
        <ele>4</ele>
        <time>2012-03-06T18:10:10Z</time>
      </trkpt>
      <trkpt lat="59.98722812" lon="23.4071071074">
        <ele>4</ele>
        <time>2012-03-06T18:10:16Z</time>
      </trkpt>
      <trkpt lat="59.9870669361" lon="23.4073144757">
        <ele>4</ele>
        <time>2012-03-06T18:10:23Z</time>
      </trkpt>
      <trkpt lat="59.9869420458" lon="23.4074837062">
        <ele>4</ele>
        <time>2012-03-06T18:10:28Z</time>
      </trkpt>
      <trkpt lat="59.9868143056" lon="23.4076256118">
        <ele>4.2</ele>
        <time>2012-03-06T18:10:33Z</time>
      </trkpt>
      <trkpt lat="59.9866910917" lon="23.407729715">
        <ele>5</ele>
        <time>2012-03-06T18:10:38Z</time>
      </trkpt>
      <trkpt lat="59.9865546343" lon="23.4078097621">
        <ele>5.4</ele>
        <time>2012-03-06T18:10:43Z</time>
      </trkpt>
      <trkpt lat="59.9863963841" lon="23.4078511687">
        <ele>5.8</ele>
        <time>2012-03-06T18:10:49Z</time>
      </trkpt>
      <trkpt lat="59.9862313445" lon="23.4078484865">
        <ele>6</ele>
        <time>2012-03-06T18:10:55Z</time>
      </trkpt>
      <trkpt lat="59.9860507145" lon="23.4078616461">
        <ele>7</ele>
        <time>2012-03-06T18:11:01Z</time>
      </trkpt>
      <trkpt lat="59.9859510537" lon="23.4078615623">
        <ele>7.4</ele>
        <time>2012-03-06T18:11:05Z</time>
      </trkpt>
      <trkpt lat="59.9858140935" lon="23.4078661723">
        <ele>8.6</ele>
        <time>2012-03-06T18:11:10Z</time>
      </trkpt>
      <trkpt lat="59.9856691704" lon="23.4078865403">
        <ele>9.4</ele>
        <time>2012-03-06T18:11:15Z</time>
      </trkpt>
      <trkpt lat="59.9855558471" lon="23.4078603888">
        <ele>10.4</ele>
        <time>2012-03-06T18:11:19Z</time>
      </trkpt>
      <trkpt lat="59.9854052244" lon="23.4077793358">
        <ele>11.2</ele>
        <time>2012-03-06T18:11:24Z</time>
      </trkpt>
      <trkpt lat="59.9852709464" lon="23.4076707064">
        <ele>12.4</ele>
        <time>2012-03-06T18:11:29Z</time>
      </trkpt>
      <trkpt lat="59.9851437091" lon="23.4075891505">
        <ele>13.2</ele>
        <time>2012-03-06T18:11:34Z</time>
      </trkpt>
      <trkpt lat="59.9849965229" lon="23.4075175691">
        <ele>14.4</ele>
        <time>2012-03-06T18:11:39Z</time>
      </trkpt>
      <trkpt lat="59.9848517675" lon="23.4074666071">
        <ele>15.2</ele>
        <time>2012-03-06T18:11:44Z</time>
      </trkpt>
      <trkpt lat="59.9846803577" lon="23.4074083529">
        <ele>16.8</ele>
        <time>2012-03-06T18:11:50Z</time>
      </trkpt>
      <trkpt lat="59.9845744943" lon="23.407397205">
        <ele>17.4</ele>
        <time>2012-03-06T18:11:54Z</time>
      </trkpt>
      <trkpt lat="59.9844936928" lon="23.4075785893">
        <ele>18.2</ele>
        <time>2012-03-06T18:11:59Z</time>
      </trkpt>
      <trkpt lat="59.9844853109" lon="23.4076365921">
        <ele>18.6</ele>
        <time>2012-03-06T18:12:00Z</time>
      </trkpt>
      <trkpt lat="59.9844516994" lon="23.4082536675">
        <ele>19.8</ele>
        <time>2012-03-06T18:12:11Z</time>
      </trkpt>
      <trkpt lat="59.9844428146" lon="23.4083150231">
        <ele>20</ele>
        <time>2012-03-06T18:12:12Z</time>
      </trkpt>
      <trkpt lat="59.9844232848" lon="23.4086017679">
        <ele>21</ele>
        <time>2012-03-06T18:12:17Z</time>
      </trkpt>
      <trkpt lat="59.9844000669" lon="23.4088932065">
        <ele>21.8</ele>
        <time>2012-03-06T18:12:22Z</time>
      </trkpt>
      <trkpt lat="59.9843868235" lon="23.4092449949">
        <ele>22.8</ele>
        <time>2012-03-06T18:12:28Z</time>
      </trkpt>
      <trkpt lat="59.9843978876" lon="23.4095916702">
        <ele>23.6</ele>
        <time>2012-03-06T18:12:34Z</time>
      </trkpt>
      <trkpt lat="59.9844042579" lon="23.4099474819">
        <ele>24.2</ele>
        <time>2012-03-06T18:12:41Z</time>
      </trkpt>
      <trkpt lat="59.9843922718" lon="23.4102159542">
        <ele>24.8</ele>
        <time>2012-03-06T18:12:46Z</time>
      </trkpt>
      <trkpt lat="59.9843339338" lon="23.4104807384">
        <ele>25.8</ele>
        <time>2012-03-06T18:12:52Z</time>
      </trkpt>
      <trkpt lat="59.9843065249" lon="23.4105347178">
        <ele>26</ele>
        <time>2012-03-06T18:12:54Z</time>
      </trkpt>
      <trkpt lat="59.9842946226" lon="23.4105297725">
        <ele>26.4</ele>
        <time>2012-03-06T18:13:00Z</time>
      </trkpt>
      <trkpt lat="59.9843258033" lon="23.4104555089">
        <ele>26.8</ele>
        <time>2012-03-06T18:13:20Z</time>
      </trkpt>
      <trkpt lat="59.9843840575" lon="23.4102093325">
        <ele>24.8</ele>
        <time>2012-03-06T18:14:16Z</time>
      </trkpt>
      <trkpt lat="59.9843795313" lon="23.4101649084">
        <ele>24.8</ele>
        <time>2012-03-06T18:14:19Z</time>
      </trkpt>
      <trkpt lat="59.9843586604" lon="23.4100541835">
        <ele>24.8</ele>
        <time>2012-03-06T18:14:26Z</time>
      </trkpt>
      <trkpt lat="59.9843554752" lon="23.4100373359">
        <ele>24.8</ele>
        <time>2012-03-06T18:14:27Z</time>
      </trkpt>
      <trkpt lat="59.9843485183" lon="23.4099929118">
        <ele>24.8</ele>
        <time>2012-03-06T18:14:30Z</time>
      </trkpt>
      <trkpt lat="59.984336616" lon="23.4099443806">
        <ele>24.8</ele>
        <time>2012-03-06T18:14:33Z</time>
      </trkpt>
      <trkpt lat="59.984329659" lon="23.4098453065">
        <ele>24.8</ele>
        <time>2012-03-06T18:14:39Z</time>
      </trkpt>
      <trkpt lat="59.9843270606" lon="23.4098312249">
        <ele>24.6</ele>
        <time>2012-03-06T18:14:40Z</time>
      </trkpt>
      <trkpt lat="59.9843038427" lon="23.4097578833">
        <ele>23.8</ele>
        <time>2012-03-06T18:14:45Z</time>
      </trkpt>
      <trkpt lat="59.9842896773" lon="23.4096598989">
        <ele>23.2</ele>
        <time>2012-03-06T18:14:51Z</time>
      </trkpt>
      <trkpt lat="59.9842679682" lon="23.409541295">
        <ele>21.4</ele>
        <time>2012-03-06T18:15:09Z</time>
      </trkpt>
      <trkpt lat="59.984258329" lon="23.4094853039">
        <ele>21.2</ele>
        <time>2012-03-06T18:15:12Z</time>
      </trkpt>
      <trkpt lat="59.9842415652" lon="23.4094127167">
        <ele>21</ele>
        <time>2012-03-06T18:15:17Z</time>
      </trkpt>
      <trkpt lat="59.9842021703" lon="23.4091841423">
        <ele>20</ele>
        <time>2012-03-06T18:15:24Z</time>
      </trkpt>
      <trkpt lat="59.9841627754" lon="23.4089708229">
        <ele>19.4</ele>
        <time>2012-03-06T18:15:29Z</time>
      </trkpt>
      <trkpt lat="59.9840995758" lon="23.4086461919">
        <ele>19</ele>
        <time>2012-03-06T18:15:36Z</time>
      </trkpt>
      <trkpt lat="59.9840400643" lon="23.4083467066">
        <ele>18.6</ele>
        <time>2012-03-06T18:15:42Z</time>
      </trkpt>
      <trkpt lat="59.9839595981" lon="23.4080060662">
        <ele>18.6</ele>
        <time>2012-03-06T18:15:49Z</time>
      </trkpt>
      <trkpt lat="59.9838794671" lon="23.4077257755">
        <ele>18.6</ele>
        <time>2012-03-06T18:15:55Z</time>
      </trkpt>
      <trkpt lat="59.9837724303" lon="23.407410616">
        <ele>18.4</ele>
        <time>2012-03-06T18:16:02Z</time>
      </trkpt>
      <trkpt lat="59.9837051236" lon="23.4071973805">
        <ele>18</ele>
        <time>2012-03-06T18:16:07Z</time>
      </trkpt>
      <trkpt lat="59.9835917165" lon="23.4068699835">
        <ele>17.2</ele>
        <time>2012-03-06T18:16:14Z</time>
      </trkpt>
      <trkpt lat="59.9834807401" lon="23.4065548241">
        <ele>16.8</ele>
        <time>2012-03-06T18:16:21Z</time>
      </trkpt>
      <trkpt lat="59.9833804926" lon="23.4062906266">
        <ele>16.6</ele>
        <time>2012-03-06T18:16:27Z</time>
      </trkpt>
      <trkpt lat="59.9832733719" lon="23.4060322126">
        <ele>16.6</ele>
        <time>2012-03-06T18:16:33Z</time>
      </trkpt>
      <trkpt lat="59.9831518344" lon="23.4057410254">
        <ele>16.4</ele>
        <time>2012-03-06T18:16:40Z</time>
      </trkpt>
      <trkpt lat="59.9830621481" lon="23.4055385187">
        <ele>16.4</ele>
        <time>2012-03-06T18:16:45Z</time>
      </trkpt>
      <trkpt lat="59.9829581287" lon="23.4052948569">
        <ele>16.4</ele>
        <time>2012-03-06T18:16:51Z</time>
      </trkpt>
      <trkpt lat="59.9828456436" lon="23.4050392927">
        <ele>16.4</ele>
        <time>2012-03-06T18:16:57Z</time>
      </trkpt>
      <trkpt lat="59.9827400316" lon="23.4048178429">
        <ele>16.4</ele>
        <time>2012-03-06T18:17:03Z</time>
      </trkpt>
      <trkpt lat="59.9826024008" lon="23.4045442577">
        <ele>16.4</ele>
        <time>2012-03-06T18:17:10Z</time>
      </trkpt>
      <trkpt lat="59.982381454" lon="23.4041265038">
        <ele>16.4</ele>
        <time>2012-03-06T18:17:21Z</time>
      </trkpt>
      <trkpt lat="59.9822414762" lon="23.4038602108">
        <ele>16.4</ele>
        <time>2012-03-06T18:17:28Z</time>
      </trkpt>
      <trkpt lat="59.9821087069" lon="23.4036473106">
        <ele>16.4</ele>
        <time>2012-03-06T18:17:34Z</time>
      </trkpt>
      <trkpt lat="59.9819760215" lon="23.4034185685">
        <ele>16.4</ele>
        <time>2012-03-06T18:17:40Z</time>
      </trkpt>
      <trkpt lat="59.9818436713" lon="23.4032070094">
        <ele>16.4</ele>
        <time>2012-03-06T18:17:46Z</time>
      </trkpt>
      <trkpt lat="59.9817131651" lon="23.4029951149">
        <ele>16.4</ele>
        <time>2012-03-06T18:17:52Z</time>
      </trkpt>
      <trkpt lat="59.9815632129" lon="23.4027560632">
        <ele>16.4</ele>
        <time>2012-03-06T18:17:59Z</time>
      </trkpt>
      <trkpt lat="59.9814270908" lon="23.4025544785">
        <ele>16.4</ele>
        <time>2012-03-06T18:18:05Z</time>
      </trkpt>
      <trkpt lat="59.9813016138" lon="23.4023985751">
        <ele>16.4</ele>
        <time>2012-03-06T18:18:10Z</time>
      </trkpt>
      <trkpt lat="59.9811513263" lon="23.402203193">
        <ele>16.4</ele>
        <time>2012-03-06T18:18:16Z</time>
      </trkpt>
      <trkpt lat="59.9810244244" lon="23.4020447751">
        <ele>16.4</ele>
        <time>2012-03-06T18:18:21Z</time>
      </trkpt>
      <trkpt lat="59.9808693592" lon="23.4018570206">
        <ele>16.4</ele>
        <time>2012-03-06T18:18:27Z</time>
      </trkpt>
      <trkpt lat="59.9807142941" lon="23.4016784023">
        <ele>16.4</ele>
        <time>2012-03-06T18:18:33Z</time>
      </trkpt>
      <trkpt lat="59.9805852128" lon="23.4015394304">
        <ele>16.4</ele>
        <time>2012-03-06T18:18:38Z</time>
      </trkpt>
      <trkpt lat="59.9804381943" lon="23.4013689425">
        <ele>16.4</ele>
        <time>2012-03-06T18:18:44Z</time>
      </trkpt>
      <trkpt lat="59.9803387011" lon="23.4012593073">
        <ele>16.4</ele>
        <time>2012-03-06T18:18:48Z</time>
      </trkpt>
      <trkpt lat="59.980205848" lon="23.4011270409">
        <ele>16.4</ele>
        <time>2012-03-06T18:18:53Z</time>
      </trkpt>
      <trkpt lat="59.9800601706" lon="23.4009778431">
        <ele>16.4</ele>
        <time>2012-03-06T18:18:59Z</time>
      </trkpt>
      <trkpt lat="59.9798883416" lon="23.4008077743">
        <ele>16.4</ele>
        <time>2012-03-06T18:19:05Z</time>
      </trkpt>
      <trkpt lat="59.9797197816" lon="23.4006604205">
        <ele>16.4</ele>
        <time>2012-03-06T18:19:12Z</time>
      </trkpt>
      <trkpt lat="59.9795925444" lon="23.4005614303">
        <ele>16.4</ele>
        <time>2012-03-06T18:19:17Z</time>
      </trkpt>
      <trkpt lat="59.9794456097" lon="23.4004300021">
        <ele>16.4</ele>
        <time>2012-03-06T18:19:23Z</time>
      </trkpt>
      <trkpt lat="59.9792701765" lon="23.4002715004">
        <ele>16.4</ele>
        <time>2012-03-06T18:19:30Z</time>
      </trkpt>
      <trkpt lat="59.9791400056" lon="23.400155914">
        <ele>16.4</ele>
        <time>2012-03-06T18:19:35Z</time>
      </trkpt>
      <trkpt lat="59.9790105052" lon="23.4000551635">
        <ele>16.4</ele>
        <time>2012-03-06T18:19:40Z</time>
      </trkpt>
      <trkpt lat="59.978878658" lon="23.3999489648">
        <ele>16.4</ele>
        <time>2012-03-06T18:19:45Z</time>
      </trkpt>
      <trkpt lat="59.9787269456" lon="23.3998245775">
        <ele>16.4</ele>
        <time>2012-03-06T18:19:51Z</time>
      </trkpt>
      <trkpt lat="59.9784431344" lon="23.399569181">
        <ele>16.4</ele>
        <time>2012-03-06T18:20:02Z</time>
      </trkpt>
      <trkpt lat="59.9782648514" lon="23.3994138644">
        <ele>16.4</ele>
        <time>2012-03-06T18:20:09Z</time>
      </trkpt>
      <trkpt lat="59.9780912623" lon="23.3992189014">
        <ele>16.4</ele>
        <time>2012-03-06T18:20:16Z</time>
      </trkpt>
      <trkpt lat="59.9779748377" lon="23.3989866389">
        <ele>16.4</ele>
        <time>2012-03-06T18:20:22Z</time>
      </trkpt>
      <trkpt lat="59.9779480156" lon="23.3987138081">
        <ele>16.4</ele>
        <time>2012-03-06T18:20:27Z</time>
      </trkpt>
      <trkpt lat="59.9779386279" lon="23.3985549711">
        <ele>16.4</ele>
        <time>2012-03-06T18:20:31Z</time>
      </trkpt>
      <trkpt lat="59.9779660367" lon="23.398670306">
        <ele>16.4</ele>
        <time>2012-03-06T18:20:35Z</time>
      </trkpt>
      <trkpt lat="59.978025632" lon="23.3990641715">
        <ele>16.4</ele>
        <time>2012-03-06T18:20:42Z</time>
      </trkpt>
      <trkpt lat="59.9781308248" lon="23.3992438794">
        <ele>16.4</ele>
        <time>2012-03-06T18:20:47Z</time>
      </trkpt>
      <trkpt lat="59.9783021509" lon="23.3993859526">
        <ele>16.4</ele>
        <time>2012-03-06T18:20:54Z</time>
      </trkpt>
      <trkpt lat="59.9784789251" lon="23.3995255951">
        <ele>16.4</ele>
        <time>2012-03-06T18:21:01Z</time>
      </trkpt>
      <trkpt lat="59.978634577" lon="23.3996519941">
        <ele>16.4</ele>
        <time>2012-03-06T18:21:07Z</time>
      </trkpt>
      <trkpt lat="59.9788074118" lon="23.39980949">
        <ele>16.4</ele>
        <time>2012-03-06T18:21:14Z</time>
      </trkpt>
      <trkpt lat="59.9789812524" lon="23.3999668183">
        <ele>16.4</ele>
        <time>2012-03-06T18:21:21Z</time>
      </trkpt>
      <trkpt lat="59.9790700167" lon="23.4000425907">
        <ele>16.4</ele>
        <time>2012-03-06T18:21:25Z</time>
      </trkpt>
      <trkpt lat="59.9791269298" lon="23.4000902837">
        <ele>16.4</ele>
        <time>2012-03-06T18:21:28Z</time>
      </trkpt>
      <trkpt lat="59.9791223198" lon="23.4001054549">
        <ele>16.4</ele>
        <time>2012-03-06T18:21:33Z</time>
      </trkpt>
      <trkpt lat="59.9791239123" lon="23.4001181954">
        <ele>17.2</ele>
        <time>2012-03-06T18:21:41Z</time>
      </trkpt>
      <trkpt lat="59.9791252535" lon="23.4000972407">
        <ele>17.8</ele>
        <time>2012-03-06T18:21:46Z</time>
      </trkpt>
      <trkpt lat="59.979245869" lon="23.4001978235">
        <ele>20.2</ele>
        <time>2012-03-06T18:22:19Z</time>
      </trkpt>
      <trkpt lat="59.9794440171" lon="23.4003823929">
        <ele>20.2</ele>
        <time>2012-03-06T18:22:24Z</time>
      </trkpt>
      <trkpt lat="59.9795988308" lon="23.4005136535">
        <ele>20.4</ele>
        <time>2012-03-06T18:22:29Z</time>
      </trkpt>
      <trkpt lat="59.9796014292" lon="23.4005140725">
        <ele>20.4</ele>
        <time>2012-03-06T18:22:33Z</time>
      </trkpt>
      <trkpt lat="59.979588102" lon="23.4004790362">
        <ele>20.4</ele>
        <time>2012-03-06T18:22:41Z</time>
      </trkpt>
      <trkpt lat="59.9796013454" lon="23.4004704028">
        <ele>20.4</ele>
        <time>2012-03-06T18:22:49Z</time>
      </trkpt>
      <trkpt lat="59.9796184444" lon="23.4004689779">
        <ele>16.4</ele>
        <time>2012-03-06T18:25:20Z</time>
      </trkpt>
      <trkpt lat="59.9797201169" lon="23.4005830556">
        <ele>16.4</ele>
        <time>2012-03-06T18:25:26Z</time>
      </trkpt>
      <trkpt lat="59.9798517127" lon="23.4007078621">
        <ele>16.4</ele>
        <time>2012-03-06T18:25:32Z</time>
      </trkpt>
      <trkpt lat="59.9800037604" lon="23.4008680402">
        <ele>16.4</ele>
        <time>2012-03-06T18:25:39Z</time>
      </trkpt>
      <trkpt lat="59.9801387928" lon="23.401002905">
        <ele>16.4</ele>
        <time>2012-03-06T18:25:45Z</time>
      </trkpt>
      <trkpt lat="59.980291511" lon="23.4011572157">
        <ele>16.4</ele>
        <time>2012-03-06T18:25:50Z</time>
      </trkpt>
      <trkpt lat="59.9804774216" lon="23.4013308887">
        <ele>16.4</ele>
        <time>2012-03-06T18:25:54Z</time>
      </trkpt>
      <trkpt lat="59.9806233504" lon="23.4014665078">
        <ele>16.4</ele>
        <time>2012-03-06T18:25:57Z</time>
      </trkpt>
      <trkpt lat="59.9806764917" lon="23.4015389275">
        <ele>16.4</ele>
        <time>2012-03-06T18:26:01Z</time>
      </trkpt>
      <trkpt lat="59.9806885616" lon="23.4015577029">
        <ele>16.4</ele>
        <time>2012-03-06T18:26:12Z</time>
      </trkpt>
      <trkpt lat="59.9808024716" lon="23.4016871195">
        <ele>16.4</ele>
        <time>2012-03-06T18:26:21Z</time>
      </trkpt>
      <trkpt lat="59.9809208241" lon="23.4018382451">
        <ele>16.4</ele>
        <time>2012-03-06T18:26:31Z</time>
      </trkpt>
      <trkpt lat="59.9810573652" lon="23.4020178692">
        <ele>16.4</ele>
        <time>2012-03-06T18:26:39Z</time>
      </trkpt>
      <trkpt lat="59.9812405097" lon="23.4022522272">
        <ele>16.4</ele>
        <time>2012-03-06T18:26:44Z</time>
      </trkpt>
      <trkpt lat="59.981403873" lon="23.4024626967">
        <ele>16.4</ele>
        <time>2012-03-06T18:26:48Z</time>
      </trkpt>
      <trkpt lat="59.9815527355" lon="23.4026716574">
        <ele>16.4</ele>
        <time>2012-03-06T18:26:52Z</time>
      </trkpt>
      <trkpt lat="59.9816328665" lon="23.4027801192">
        <ele>16.4</ele>
        <time>2012-03-06T18:26:54Z</time>
      </trkpt>
      <trkpt lat="59.9818217945" lon="23.4030510222">
        <ele>16.4</ele>
        <time>2012-03-06T18:26:59Z</time>
      </trkpt>
      <trkpt lat="59.9818564117" lon="23.4031013136">
        <ele>16.4</ele>
        <time>2012-03-06T18:27:00Z</time>
      </trkpt>
      <trkpt lat="59.9820550628" lon="23.4034073368">
        <ele>16.4</ele>
        <time>2012-03-06T18:27:06Z</time>
      </trkpt>
      <trkpt lat="59.9821247164" lon="23.403522085">
        <ele>16.4</ele>
        <time>2012-03-06T18:27:08Z</time>
      </trkpt>
      <trkpt lat="59.9823099564" lon="23.403835149">
        <ele>16.4</ele>
        <time>2012-03-06T18:27:14Z</time>
      </trkpt>
      <trkpt lat="59.9824739901" lon="23.4041155235">
        <ele>16.4</ele>
        <time>2012-03-06T18:27:19Z</time>
      </trkpt>
      <trkpt lat="59.9826246129" lon="23.4044045314">
        <ele>16.8</ele>
        <time>2012-03-06T18:27:24Z</time>
      </trkpt>
      <trkpt lat="59.982655123" lon="23.4044657193">
        <ele>17</ele>
        <time>2012-03-06T18:27:25Z</time>
      </trkpt>
      <trkpt lat="59.9828271196" lon="23.4048382948">
        <ele>17.8</ele>
        <time>2012-03-06T18:27:31Z</time>
      </trkpt>
      <trkpt lat="59.9829598889" lon="23.4051352655">
        <ele>18</ele>
        <time>2012-03-06T18:27:36Z</time>
      </trkpt>
      <trkpt lat="59.9830986931" lon="23.4054324038">
        <ele>18.2</ele>
        <time>2012-03-06T18:27:41Z</time>
      </trkpt>
      <trkpt lat="59.9831582885" lon="23.4055506724">
        <ele>18.6</ele>
        <time>2012-03-06T18:27:43Z</time>
      </trkpt>
      <trkpt lat="59.9833265132" lon="23.4059219068">
        <ele>19.6</ele>
        <time>2012-03-06T18:27:49Z</time>
      </trkpt>
      <trkpt lat="59.9833542573" lon="23.405982005">
        <ele>19.6</ele>
        <time>2012-03-06T18:27:50Z</time>
      </trkpt>
      <trkpt lat="59.9834924748" lon="23.4063050434">
        <ele>20</ele>
        <time>2012-03-06T18:27:55Z</time>
      </trkpt>
      <trkpt lat="59.9836635494" lon="23.4068320135">
        <ele>21.2</ele>
        <time>2012-03-06T18:28:02Z</time>
      </trkpt>
      <trkpt lat="59.9836874378" lon="23.4068993201">
        <ele>21.4</ele>
        <time>2012-03-06T18:28:03Z</time>
      </trkpt>
      <trkpt lat="59.9838788804" lon="23.4074345045">
        <ele>22.8</ele>
        <time>2012-03-06T18:28:11Z</time>
      </trkpt>
      <trkpt lat="59.9839870907" lon="23.407819066">
        <ele>23.6</ele>
        <time>2012-03-06T18:28:16Z</time>
      </trkpt>
      <trkpt lat="59.9840445906" lon="23.4080369954">
        <ele>24</ele>
        <time>2012-03-06T18:28:19Z</time>
      </trkpt>
      <trkpt lat="59.9841210335" lon="23.4083178729">
        <ele>24.2</ele>
        <time>2012-03-06T18:28:23Z</time>
      </trkpt>
      <trkpt lat="59.9841505378" lon="23.408471597">
        <ele>24.4</ele>
        <time>2012-03-06T18:28:25Z</time>
      </trkpt>
      <trkpt lat="59.9841933693" lon="23.4086399055">
        <ele>25.2</ele>
        <time>2012-03-06T18:28:29Z</time>
      </trkpt>
      <trkpt lat="59.9841782819" lon="23.4086672305">
        <ele>26.2</ele>
        <time>2012-03-06T18:28:37Z</time>
      </trkpt>
      <trkpt lat="59.9842072832" lon="23.4086834076">
        <ele>26.6</ele>
        <time>2012-03-06T18:28:46Z</time>
      </trkpt>
      <trkpt lat="59.9842211972" lon="23.4087000037">
        <ele>26.8</ele>
        <time>2012-03-06T18:28:51Z</time>
      </trkpt>
      <trkpt lat="59.984237039" lon="23.4087641253">
        <ele>28.6</ele>
        <time>2012-03-06T18:29:09Z</time>
      </trkpt>
      <trkpt lat="59.9842681358" lon="23.4089036001">
        <ele>28.8</ele>
        <time>2012-03-06T18:29:16Z</time>
      </trkpt>
      <trkpt lat="59.9843007414" lon="23.4090967191">
        <ele>29</ele>
        <time>2012-03-06T18:29:25Z</time>
      </trkpt>
      <trkpt lat="59.9843339338" lon="23.4093202643">
        <ele>28.2</ele>
        <time>2012-03-06T18:29:35Z</time>
      </trkpt>
      <trkpt lat="59.9843715685" lon="23.4095490902">
        <ele>26.4</ele>
        <time>2012-03-06T18:29:45Z</time>
      </trkpt>
      <trkpt lat="59.9844101252" lon="23.4097647565">
        <ele>24.4</ele>
        <time>2012-03-06T18:29:55Z</time>
      </trkpt>
      <trkpt lat="59.9844030844" lon="23.4097726355">
        <ele>23</ele>
        <time>2012-03-06T18:30:04Z</time>
      </trkpt>
      <trkpt lat="59.9843672937" lon="23.4096681132">
        <ele>20.2</ele>
        <time>2012-03-06T18:30:29Z</time>
      </trkpt>
      <trkpt lat="59.9843501108" lon="23.4095750741">
        <ele>19.2</ele>
        <time>2012-03-06T18:30:38Z</time>
      </trkpt>
      <trkpt lat="59.9843506137" lon="23.4095664407">
        <ele>18.8</ele>
        <time>2012-03-06T18:30:48Z</time>
      </trkpt>
      <trkpt lat="59.9842880848" lon="23.4092890837">
        <ele>18.8</ele>
        <time>2012-03-06T18:30:53Z</time>
      </trkpt>
      <trkpt lat="59.9842182635" lon="23.4089403966">
        <ele>18.8</ele>
        <time>2012-03-06T18:30:57Z</time>
      </trkpt>
      <trkpt lat="59.984150454" lon="23.4085982475">
        <ele>18.6</ele>
        <time>2012-03-06T18:31:01Z</time>
      </trkpt>
      <trkpt lat="59.9840773638" lon="23.4082661566">
        <ele>18.6</ele>
        <time>2012-03-06T18:31:05Z</time>
      </trkpt>
      <trkpt lat="59.9840603485" lon="23.4081819185">
        <ele>18.6</ele>
        <time>2012-03-06T18:31:06Z</time>
      </trkpt>
      <trkpt lat="59.9839523058" lon="23.4077718759">
        <ele>18.6</ele>
        <time>2012-03-06T18:31:11Z</time>
      </trkpt>
      <trkpt lat="59.9839271601" lon="23.407690823">
        <ele>18.6</ele>
        <time>2012-03-06T18:31:12Z</time>
      </trkpt>
      <trkpt lat="59.9838228055" lon="23.4073727299">
        <ele>18.6</ele>
        <time>2012-03-06T18:31:16Z</time>
      </trkpt>
      <trkpt lat="59.9837951452" lon="23.4072900005">
        <ele>18.6</ele>
        <time>2012-03-06T18:31:17Z</time>
      </trkpt>
      <trkpt lat="59.9837214683" lon="23.4070652818">
        <ele>18.6</ele>
        <time>2012-03-06T18:31:20Z</time>
      </trkpt>
      <trkpt lat="59.9836941433" lon="23.4069885036">
        <ele>18.6</ele>
        <time>2012-03-06T18:31:21Z</time>
      </trkpt>
      <trkpt lat="59.9835736116" lon="23.4066678959">
        <ele>18.6</ele>
        <time>2012-03-06T18:31:25Z</time>
      </trkpt>
      <trkpt lat="59.9834855178" lon="23.4064241502">
        <ele>18.6</ele>
        <time>2012-03-06T18:31:28Z</time>
      </trkpt>
      <trkpt lat="59.9833190533" lon="23.4059958351">
        <ele>18.6</ele>
        <time>2012-03-06T18:31:34Z</time>
      </trkpt>
      <trkpt lat="59.9831951688" lon="23.4056979424">
        <ele>18.6</ele>
        <time>2012-03-06T18:31:38Z</time>
      </trkpt>
      <trkpt lat="59.983060304" lon="23.4054148857">
        <ele>18.6</ele>
        <time>2012-03-06T18:31:42Z</time>
      </trkpt>
      <trkpt lat="59.9829317257" lon="23.4051373609">
        <ele>18.6</ele>
        <time>2012-03-06T18:31:46Z</time>
      </trkpt>
      <trkpt lat="59.9828428776" lon="23.4049441582">
        <ele>18.6</ele>
        <time>2012-03-06T18:31:49Z</time>
      </trkpt>
      <trkpt lat="59.9827636686" lon="23.4047550625">
        <ele>18.6</ele>
        <time>2012-03-06T18:31:52Z</time>
      </trkpt>
      <trkpt lat="59.9825765008" lon="23.4043870133">
        <ele>18.6</ele>
        <time>2012-03-06T18:31:58Z</time>
      </trkpt>
      <trkpt lat="59.9824263809" lon="23.4040800681">
        <ele>18.6</ele>
        <time>2012-03-06T18:32:03Z</time>
      </trkpt>
      <trkpt lat="59.9823957032" lon="23.4040221492">
        <ele>18.6</ele>
        <time>2012-03-06T18:32:04Z</time>
      </trkpt>
      <trkpt lat="59.9822131454" lon="23.4036654993">
        <ele>18.6</ele>
        <time>2012-03-06T18:32:10Z</time>
      </trkpt>
      <trkpt lat="59.9820798732" lon="23.4034663454">
        <ele>18.6</ele>
        <time>2012-03-06T18:32:14Z</time>
      </trkpt>
      <trkpt lat="59.9818777018" lon="23.4031573047">
        <ele>18.6</ele>
        <time>2012-03-06T18:32:20Z</time>
      </trkpt>
      <trkpt lat="59.9816764524" lon="23.4028635191">
        <ele>18.6</ele>
        <time>2012-03-06T18:32:26Z</time>
      </trkpt>
      <trkpt lat="59.9815125024" lon="23.40260192">
        <ele>18.6</ele>
        <time>2012-03-06T18:32:31Z</time>
      </trkpt>
      <trkpt lat="59.9814783881" lon="23.4025533888">
        <ele>18.6</ele>
        <time>2012-03-06T18:32:32Z</time>
      </trkpt>
      <trkpt lat="59.9812944892" lon="23.4023331125">
        <ele>18.6</ele>
        <time>2012-03-06T18:32:37Z</time>
      </trkpt>
      <trkpt lat="59.9811110932" lon="23.4021002633">
        <ele>18.6</ele>
        <time>2012-03-06T18:32:42Z</time>
      </trkpt>
      <trkpt lat="59.9810760569" lon="23.4020529056">
        <ele>18.6</ele>
        <time>2012-03-06T18:32:43Z</time>
      </trkpt>
      <trkpt lat="59.9808573731" lon="23.4017924799">
        <ele>18.6</ele>
        <time>2012-03-06T18:32:49Z</time>
      </trkpt>
      <trkpt lat="59.9808222529" lon="23.4017457928">
        <ele>18.6</ele>
        <time>2012-03-06T18:32:50Z</time>
      </trkpt>
      <trkpt lat="59.9806026471" lon="23.4014981914">
        <ele>18.6</ele>
        <time>2012-03-06T18:32:56Z</time>
      </trkpt>
      <trkpt lat="59.9804250347" lon="23.401298786">
        <ele>18.6</ele>
        <time>2012-03-06T18:33:01Z</time>
      </trkpt>
      <trkpt lat="59.9802292335" lon="23.4010905796">
        <ele>18.6</ele>
        <time>2012-03-06T18:33:06Z</time>
      </trkpt>
      <trkpt lat="59.9801887489" lon="23.4010516876">
        <ele>18.6</ele>
        <time>2012-03-06T18:33:07Z</time>
      </trkpt>
      <trkpt lat="59.9801056005" lon="23.4009757476">
        <ele>18.6</ele>
        <time>2012-03-06T18:33:09Z</time>
      </trkpt>
      <trkpt lat="59.9798732542" lon="23.4007483467">
        <ele>18.6</ele>
        <time>2012-03-06T18:33:15Z</time>
      </trkpt>
      <trkpt lat="59.9797220447" lon="23.4006029207">
        <ele>18.6</ele>
        <time>2012-03-06T18:33:19Z</time>
      </trkpt>
      <trkpt lat="59.9795613637" lon="23.4004614342">
        <ele>18.6</ele>
        <time>2012-03-06T18:33:23Z</time>
      </trkpt>
      <trkpt lat="59.9793346333" lon="23.4002633699">
        <ele>18.6</ele>
        <time>2012-03-06T18:33:29Z</time>
      </trkpt>
      <trkpt lat="59.9792990102" lon="23.4002345362">
        <ele>18.6</ele>
        <time>2012-03-06T18:33:30Z</time>
      </trkpt>
      <trkpt lat="59.9791415982" lon="23.4001028565">
        <ele>18.6</ele>
        <time>2012-03-06T18:33:34Z</time>
      </trkpt>
      <trkpt lat="59.979065742" lon="23.4000379806">
        <ele>18.6</ele>
        <time>2012-03-06T18:33:36Z</time>
      </trkpt>
      <trkpt lat="59.9789042227" lon="23.3999051275">
        <ele>18.6</ele>
        <time>2012-03-06T18:33:40Z</time>
      </trkpt>
      <trkpt lat="59.9788266064" lon="23.399846538">
        <ele>18.6</ele>
        <time>2012-03-06T18:33:42Z</time>
      </trkpt>
      <trkpt lat="59.9786399414" lon="23.3997059736">
        <ele>18.6</ele>
        <time>2012-03-06T18:33:47Z</time>
      </trkpt>
      <trkpt lat="59.9784864689" lon="23.399566834">
        <ele>18.6</ele>
        <time>2012-03-06T18:33:51Z</time>
      </trkpt>
      <trkpt lat="59.9782596546" lon="23.3993986093">
        <ele>18.6</ele>
        <time>2012-03-06T18:33:57Z</time>
      </trkpt>
      <trkpt lat="59.9782236125" lon="23.3993550234">
        <ele>18.4</ele>
        <time>2012-03-06T18:33:58Z</time>
      </trkpt>
      <trkpt lat="59.9780859817" lon="23.3991887265">
        <ele>17.8</ele>
        <time>2012-03-06T18:34:02Z</time>
      </trkpt>
      <trkpt lat="59.9780261349" lon="23.3990692006">
        <ele>17.6</ele>
        <time>2012-03-06T18:34:04Z</time>
      </trkpt>
      <trkpt lat="59.9779203553" lon="23.3983263128">
        <ele>17</ele>
        <time>2012-03-06T18:34:13Z</time>
      </trkpt>
      <trkpt lat="59.977925133" lon="23.3982499537">
        <ele>17</ele>
        <time>2012-03-06T18:34:14Z</time>
      </trkpt>
      <trkpt lat="59.9779378735" lon="23.3980947209">
        <ele>16.8</ele>
        <time>2012-03-06T18:34:16Z</time>
      </trkpt>
      <trkpt lat="59.9779632707" lon="23.3979623707">
        <ele>16.8</ele>
        <time>2012-03-06T18:34:20Z</time>
      </trkpt>
      <trkpt lat="59.9779785257" lon="23.3979861753">
        <ele>16.6</ele>
        <time>2012-03-06T18:34:31Z</time>
      </trkpt>
      <trkpt lat="59.9779828005" lon="23.3980400709">
        <ele>16.6</ele>
        <time>2012-03-06T18:34:40Z</time>
      </trkpt>
      <trkpt lat="59.9779675454" lon="23.3981863351">
        <ele>16.6</ele>
        <time>2012-03-06T18:34:46Z</time>
      </trkpt>
      <trkpt lat="59.9779495243" lon="23.3984008279">
        <ele>16.6</ele>
        <time>2012-03-06T18:34:55Z</time>
      </trkpt>
      <trkpt lat="59.9779567328" lon="23.3984706491">
        <ele>16.6</ele>
        <time>2012-03-06T18:34:59Z</time>
      </trkpt>
      <trkpt lat="59.9779683836" lon="23.3985140674">
        <ele>16.6</ele>
        <time>2012-03-06T18:35:02Z</time>
      </trkpt>
      <trkpt lat="59.9779853151" lon="23.3985641073">
        <ele>16.6</ele>
        <time>2012-03-06T18:35:06Z</time>
      </trkpt>
      <trkpt lat="59.9779931102" lon="23.3985966291">
        <ele>16.6</ele>
        <time>2012-03-06T18:35:08Z</time>
      </trkpt>
      <trkpt lat="59.9780044258" lon="23.3986811187">
        <ele>16.6</ele>
        <time>2012-03-06T18:35:13Z</time>
      </trkpt>
      <trkpt lat="59.9780056831" lon="23.3987780972">
        <ele>16.6</ele>
        <time>2012-03-06T18:35:18Z</time>
      </trkpt>
      <trkpt lat="59.9780292362" lon="23.398870382">
        <ele>16.6</ele>
        <time>2012-03-06T18:35:22Z</time>
      </trkpt>
      <trkpt lat="59.978031667" lon="23.3988942704">
        <ele>16.6</ele>
        <time>2012-03-06T18:35:23Z</time>
      </trkpt>
      <trkpt lat="59.9780720677" lon="23.3990633333">
        <ele>16.2</ele>
        <time>2012-03-06T18:35:31Z</time>
      </trkpt>
      <trkpt lat="59.9781382847" lon="23.3991721304">
        <ele>15.2</ele>
        <time>2012-03-06T18:35:39Z</time>
      </trkpt>
      <trkpt lat="59.9782094471" lon="23.3992442147">
        <ele>15</ele>
        <time>2012-03-06T18:35:45Z</time>
      </trkpt>
      <trkpt lat="59.9782891589" lon="23.3993162152">
        <ele>14.8</ele>
        <time>2012-03-06T18:35:53Z</time>
      </trkpt>
      <trkpt lat="59.978394268" lon="23.3994050634">
        <ele>13.6</ele>
        <time>2012-03-06T18:36:03Z</time>
      </trkpt>
      <trkpt lat="59.9784901569" lon="23.3994924028">
        <ele>13</ele>
        <time>2012-03-06T18:36:12Z</time>
      </trkpt>
      <trkpt lat="59.9785014725" lon="23.39950573">
        <ele>13</ele>
        <time>2012-03-06T18:36:13Z</time>
      </trkpt>
      <trkpt lat="59.9785796756" lon="23.3995573625">
        <ele>12.8</ele>
        <time>2012-03-06T18:36:20Z</time>
      </trkpt>
      <trkpt lat="59.9786665121" lon="23.3996408462">
        <ele>12</ele>
        <time>2012-03-06T18:36:27Z</time>
      </trkpt>
      <trkpt lat="59.9787583777" lon="23.3997176244">
        <ele>11.2</ele>
        <time>2012-03-06T18:36:35Z</time>
      </trkpt>
      <trkpt lat="59.9788488184" lon="23.3998013596">
        <ele>10.8</ele>
        <time>2012-03-06T18:36:43Z</time>
      </trkpt>
      <trkpt lat="59.9789386724" lon="23.3998577698">
        <ele>10.6</ele>
        <time>2012-03-06T18:36:50Z</time>
      </trkpt>
      <trkpt lat="59.979026347" lon="23.3999374816">
        <ele>10.6</ele>
        <time>2012-03-06T18:36:58Z</time>
      </trkpt>
      <trkpt lat="59.9791295282" lon="23.4000293473">
        <ele>10.6</ele>
        <time>2012-03-06T18:37:06Z</time>
      </trkpt>
      <trkpt lat="59.9792250819" lon="23.4001022698">
        <ele>11.6</ele>
        <time>2012-03-06T18:37:14Z</time>
      </trkpt>
      <trkpt lat="59.9793345495" lon="23.4001930458">
        <ele>12.2</ele>
        <time>2012-03-06T18:37:24Z</time>
      </trkpt>
      <trkpt lat="59.9794234815" lon="23.4002699078">
        <ele>12.4</ele>
        <time>2012-03-06T18:37:31Z</time>
      </trkpt>
      <trkpt lat="59.9795308536" lon="23.4003812194">
        <ele>12.6</ele>
        <time>2012-03-06T18:37:41Z</time>
      </trkpt>
      <trkpt lat="59.9796161813" lon="23.4004563213">
        <ele>12.6</ele>
        <time>2012-03-06T18:37:49Z</time>
      </trkpt>
      <trkpt lat="59.9796927081" lon="23.4005330995">
        <ele>12.6</ele>
        <time>2012-03-06T18:37:56Z</time>
      </trkpt>
      <trkpt lat="59.979730259" lon="23.4005621008">
        <ele>12.6</ele>
        <time>2012-03-06T18:37:59Z</time>
      </trkpt>
      <trkpt lat="59.979815922" lon="23.4006389629">
        <ele>12.6</ele>
        <time>2012-03-06T18:38:07Z</time>
      </trkpt>
      <trkpt lat="59.979925222" lon="23.4007371987">
        <ele>12.6</ele>
        <time>2012-03-06T18:38:16Z</time>
      </trkpt>
      <trkpt lat="59.9800445802" lon="23.4008519469">
        <ele>12.6</ele>
        <time>2012-03-06T18:38:25Z</time>
      </trkpt>
      <trkpt lat="59.9801624298" lon="23.4009574751">
        <ele>12.6</ele>
        <time>2012-03-06T18:38:28Z</time>
      </trkpt>
      <trkpt lat="59.9803163214" lon="23.4011193295">
        <ele>12.6</ele>
        <time>2012-03-06T18:38:32Z</time>
      </trkpt>
      <trkpt lat="59.9803361027" lon="23.4011484147">
        <ele>12.6</ele>
        <time>2012-03-06T18:38:35Z</time>
      </trkpt>
      <trkpt lat="59.9803034971" lon="23.4011112829">
        <ele>12.6</ele>
        <time>2012-03-06T18:38:40Z</time>
      </trkpt>
      <trkpt lat="59.9802772618" lon="23.4010962793">
        <ele>12.6</ele>
        <time>2012-03-06T18:38:46Z</time>
      </trkpt>
      <trkpt lat="59.9803583986" lon="23.4011780028">
        <ele>12.6</ele>
        <time>2012-03-06T18:38:54Z</time>
      </trkpt>
      <trkpt lat="59.9803814488" lon="23.4011977003">
        <ele>12.6</ele>
        <time>2012-03-06T18:38:56Z</time>
      </trkpt>
      <trkpt lat="59.9804277169" lon="23.4012570442">
        <ele>12.6</ele>
        <time>2012-03-06T18:39:01Z</time>
      </trkpt>
      <trkpt lat="59.9805163136" lon="23.4013447188">
        <ele>12.6</ele>
        <time>2012-03-06T18:39:10Z</time>
      </trkpt>
      <trkpt lat="59.9806119511" lon="23.4014515881">
        <ele>12.6</ele>
        <time>2012-03-06T18:39:18Z</time>
      </trkpt>
      <trkpt lat="59.9807110251" lon="23.4015525061">
        <ele>12.6</ele>
        <time>2012-03-06T18:39:26Z</time>
      </trkpt>
      <trkpt lat="59.9808220853" lon="23.4016851916">
        <ele>12.6</ele>
        <time>2012-03-06T18:39:36Z</time>
      </trkpt>
      <trkpt lat="59.9809192315" lon="23.4018107525">
        <ele>12.6</ele>
        <time>2012-03-06T18:39:45Z</time>
      </trkpt>
      <trkpt lat="59.9809974346" lon="23.4019178732">
        <ele>12.6</ele>
        <time>2012-03-06T18:39:53Z</time>
      </trkpt>
      <trkpt lat="59.9810596283" lon="23.401991131">
        <ele>12.6</ele>
        <time>2012-03-06T18:39:59Z</time>
      </trkpt>
      <trkpt lat="59.9810841035" lon="23.4020317832">
        <ele>12.6</ele>
        <time>2012-03-06T18:40:07Z</time>
      </trkpt>
      <trkpt lat="59.9811480574" lon="23.4021316116">
        <ele>13.8</ele>
        <time>2012-03-06T18:40:27Z</time>
      </trkpt>
      <trkpt lat="59.9813357281" lon="23.40235281">
        <ele>14.2</ele>
        <time>2012-03-06T18:40:32Z</time>
      </trkpt>
      <trkpt lat="59.9815290147" lon="23.4025925323">
        <ele>14.4</ele>
        <time>2012-03-06T18:40:37Z</time>
      </trkpt>
      <trkpt lat="59.9816801404" lon="23.4027999843">
        <ele>14.4</ele>
        <time>2012-03-06T18:40:41Z</time>
      </trkpt>
      <trkpt lat="59.9817917035" lon="23.4029586537">
        <ele>14.4</ele>
        <time>2012-03-06T18:40:44Z</time>
      </trkpt>
      <trkpt lat="59.981967891" lon="23.4032389444">
        <ele>14.6</ele>
        <time>2012-03-06T18:40:49Z</time>
      </trkpt>
      <trkpt lat="59.9821522928" lon="23.4035098474">
        <ele>14.6</ele>
        <time>2012-03-06T18:40:54Z</time>
      </trkpt>
      <trkpt lat="59.982259665" lon="23.4036696064">
        <ele>14.6</ele>
        <time>2012-03-06T18:40:57Z</time>
      </trkpt>
      <trkpt lat="59.982454125" lon="23.404018964">
        <ele>14.6</ele>
        <time>2012-03-06T18:41:03Z</time>
      </trkpt>
      <trkpt lat="59.9825841283" lon="23.4042696667">
        <ele>14.6</ele>
        <time>2012-03-06T18:41:07Z</time>
      </trkpt>
      <trkpt lat="59.982710695" lon="23.4045328583">
        <ele>14.6</ele>
        <time>2012-03-06T18:41:11Z</time>
      </trkpt>
      <trkpt lat="59.9827692845" lon="23.4046692318">
        <ele>14.6</ele>
        <time>2012-03-06T18:41:13Z</time>
      </trkpt>
      <trkpt lat="59.9828631618" lon="23.4048444974">
        <ele>14.6</ele>
        <time>2012-03-06T18:41:16Z</time>
      </trkpt>
      <trkpt lat="59.9829521775" lon="23.40503594">
        <ele>14.6</ele>
        <time>2012-03-06T18:41:19Z</time>
      </trkpt>
      <trkpt lat="59.9830995313" lon="23.4053562124">
        <ele>14.6</ele>
        <time>2012-03-06T18:41:24Z</time>
      </trkpt>
      <trkpt lat="59.9832306243" lon="23.4056097648">
        <ele>14.6</ele>
        <time>2012-03-06T18:41:28Z</time>
      </trkpt>
      <trkpt lat="59.9833667463" lon="23.4059430292">
        <ele>14.6</ele>
        <time>2012-03-06T18:41:33Z</time>
      </trkpt>
      <trkpt lat="59.9834491404" lon="23.406150565">
        <ele>14.6</ele>
        <time>2012-03-06T18:41:36Z</time>
      </trkpt>
      <trkpt lat="59.983533127" lon="23.4063574303">
        <ele>14.6</ele>
        <time>2012-03-06T18:41:39Z</time>
      </trkpt>
      <trkpt lat="59.9836275072" lon="23.4066424987">
        <ele>14.6</ele>
        <time>2012-03-06T18:41:43Z</time>
      </trkpt>
      <trkpt lat="59.9837238991" lon="23.4069103004">
        <ele>14.6</ele>
        <time>2012-03-06T18:41:47Z</time>
      </trkpt>
      <trkpt lat="59.9837627073" lon="23.4070456681">
        <ele>14.6</ele>
        <time>2012-03-06T18:41:49Z</time>
      </trkpt>
      <trkpt lat="59.9838873461" lon="23.4073792677">
        <ele>14.6</ele>
        <time>2012-03-06T18:41:54Z</time>
      </trkpt>
      <trkpt lat="59.9840498712" lon="23.4079561939">
        <ele>14.6</ele>
        <time>2012-03-06T18:42:02Z</time>
      </trkpt>
      <trkpt lat="59.9840957202" lon="23.408176135">
        <ele>14.6</ele>
        <time>2012-03-06T18:42:05Z</time>
      </trkpt>
      <trkpt lat="59.9841885078" lon="23.4085612833">
        <ele>14.6</ele>
        <time>2012-03-06T18:42:10Z</time>
      </trkpt>
      <trkpt lat="59.9842419843" lon="23.4087999998">
        <ele>14.6</ele>
        <time>2012-03-06T18:42:13Z</time>
      </trkpt>
      <trkpt lat="59.9843045971" lon="23.409133348">
        <ele>15</ele>
        <time>2012-03-06T18:42:17Z</time>
      </trkpt>
      <trkpt lat="59.9843306648" lon="23.4092570648">
        <ele>15.4</ele>
        <time>2012-03-06T18:42:20Z</time>
      </trkpt>
      <trkpt lat="59.9842852349" lon="23.4090520435">
        <ele>15.8</ele>
        <time>2012-03-06T18:42:23Z</time>
      </trkpt>
      <trkpt lat="59.9841950457" lon="23.4086761991">
        <ele>16.2</ele>
        <time>2012-03-06T18:42:28Z</time>
      </trkpt>
      <trkpt lat="59.984175432" lon="23.4085991695">
        <ele>16.2</ele>
        <time>2012-03-06T18:42:29Z</time>
      </trkpt>
      <trkpt lat="59.9840774476" lon="23.4082296953">
        <ele>16.4</ele>
        <time>2012-03-06T18:42:34Z</time>
      </trkpt>
      <trkpt lat="59.983945265" lon="23.4077904838">
        <ele>16.6</ele>
        <time>2012-03-06T18:42:40Z</time>
      </trkpt>
      <trkpt lat="59.9838237275" lon="23.4074397851">
        <ele>16.6</ele>
        <time>2012-03-06T18:42:45Z</time>
      </trkpt>
      <trkpt lat="59.9837991685" lon="23.4073687904">
        <ele>16.6</ele>
        <time>2012-03-06T18:42:46Z</time>
      </trkpt>
      <trkpt lat="59.9837062133" lon="23.4070925229">
        <ele>16.6</ele>
        <time>2012-03-06T18:42:50Z</time>
      </trkpt>
      <trkpt lat="59.9836834145" lon="23.4070223664">
        <ele>16.6</ele>
        <time>2012-03-06T18:42:51Z</time>
      </trkpt>
      <trkpt lat="59.9836088156" lon="23.4068169261">
        <ele>16.6</ele>
        <time>2012-03-06T18:42:54Z</time>
      </trkpt>
      <trkpt lat="59.9834452847" lon="23.4064219709">
        <ele>17.6</ele>
        <time>2012-03-06T18:43:00Z</time>
      </trkpt>
      <trkpt lat="59.983318718" lon="23.4061024529">
        <ele>18</ele>
        <time>2012-03-06T18:43:05Z</time>
      </trkpt>
      <trkpt lat="59.9832952487" lon="23.4060400916">
        <ele>18.2</ele>
        <time>2012-03-06T18:43:06Z</time>
      </trkpt>
      <trkpt lat="59.9832286964" lon="23.405845883">
        <ele>18.2</ele>
        <time>2012-03-06T18:43:09Z</time>
      </trkpt>
      <trkpt lat="59.9831204023" lon="23.4055970243">
        <ele>18.4</ele>
        <time>2012-03-06T18:43:13Z</time>
      </trkpt>
      <trkpt lat="59.9829625711" lon="23.4052403745">
        <ele>18.6</ele>
        <time>2012-03-06T18:43:19Z</time>
      </trkpt>
      <trkpt lat="59.9828305562" lon="23.4049562281">
        <ele>18.6</ele>
        <time>2012-03-06T18:43:24Z</time>
      </trkpt>
      <trkpt lat="59.98272134" lon="23.4047322637">
        <ele>18.8</ele>
        <time>2012-03-06T18:43:28Z</time>
      </trkpt>
      <trkpt lat="59.9825811108" lon="23.4044586785">
        <ele>19.2</ele>
        <time>2012-03-06T18:43:33Z</time>
      </trkpt>
      <trkpt lat="59.9824358525" lon="23.4041676589">
        <ele>19.8</ele>
        <time>2012-03-06T18:43:38Z</time>
      </trkpt>
      <trkpt lat="59.9823264687" lon="23.4039658228">
        <ele>20.2</ele>
        <time>2012-03-06T18:43:42Z</time>
      </trkpt>
      <trkpt lat="59.9821664582" lon="23.4037021282">
        <ele>20.4</ele>
        <time>2012-03-06T18:43:47Z</time>
      </trkpt>
      <trkpt lat="59.9821341041" lon="23.4036421138">
        <ele>20.4</ele>
        <time>2012-03-06T18:43:48Z</time>
      </trkpt>
      <trkpt lat="59.9820497822" lon="23.4034954306">
        <ele>20.6</ele>
        <time>2012-03-06T18:43:51Z</time>
      </trkpt>
      <trkpt lat="59.9818765283" lon="23.4031987113">
        <ele>20.6</ele>
        <time>2012-03-06T18:43:57Z</time>
      </trkpt>
      <trkpt lat="59.9817254865" lon="23.4029627608">
        <ele>20.8</ele>
        <time>2012-03-06T18:44:02Z</time>
      </trkpt>
      <trkpt lat="59.9815689964" lon="23.4027165844">
        <ele>20.8</ele>
        <time>2012-03-06T18:44:07Z</time>
      </trkpt>
      <trkpt lat="59.9814021128" lon="23.4024865851">
        <ele>20.8</ele>
        <time>2012-03-06T18:44:12Z</time>
      </trkpt>
      <trkpt lat="59.9812507357" lon="23.4022821505">
        <ele>20.8</ele>
        <time>2012-03-06T18:44:17Z</time>
      </trkpt>
      <trkpt lat="59.9812390848" lon="23.4022696615">
        <ele>20.8</ele>
        <time>2012-03-06T18:44:18Z</time>
      </trkpt>
      <trkpt lat="59.9812923937" lon="23.4023457692">
        <ele>20.8</ele>
        <time>2012-03-06T18:44:21Z</time>
      </trkpt>
      <trkpt lat="59.9814762088" lon="23.4025642853">
        <ele>20.8</ele>
        <time>2012-03-06T18:44:26Z</time>
      </trkpt>
      <trkpt lat="59.9816120794" lon="23.4027426521">
        <ele>20.6</ele>
        <time>2012-03-06T18:44:30Z</time>
      </trkpt>
      <trkpt lat="59.9816828226" lon="23.402836697">
        <ele>20.2</ele>
        <time>2012-03-06T18:44:32Z</time>
      </trkpt>
      <trkpt lat="59.9818971478" lon="23.4031368529">
        <ele>19.6</ele>
        <time>2012-03-06T18:44:38Z</time>
      </trkpt>
      <trkpt lat="59.9820297494" lon="23.4033235178">
        <ele>19.2</ele>
        <time>2012-03-06T18:44:42Z</time>
      </trkpt>
      <trkpt lat="59.982218426" lon="23.4036173872">
        <ele>19</ele>
        <time>2012-03-06T18:44:48Z</time>
      </trkpt>
      <trkpt lat="59.9822488523" lon="23.4036704446">
        <ele>19</ele>
        <time>2012-03-06T18:44:49Z</time>
      </trkpt>
      <trkpt lat="59.9824071026" lon="23.4039389169">
        <ele>18.8</ele>
        <time>2012-03-06T18:44:54Z</time>
      </trkpt>
      <trkpt lat="59.9824357687" lon="23.4039906332">
        <ele>18.8</ele>
        <time>2012-03-06T18:44:55Z</time>
      </trkpt>
      <trkpt lat="59.98256946" lon="23.4042233986">
        <ele>18.8</ele>
        <time>2012-03-06T18:45:00Z</time>
      </trkpt>
      <trkpt lat="59.9826980383" lon="23.4044633724">
        <ele>18.8</ele>
        <time>2012-03-06T18:45:04Z</time>
      </trkpt>
      <trkpt lat="59.9828721304" lon="23.4048011629">
        <ele>18.8</ele>
        <time>2012-03-06T18:45:10Z</time>
      </trkpt>
      <trkpt lat="59.9829277024" lon="23.404913648">
        <ele>18.8</ele>
        <time>2012-03-06T18:45:12Z</time>
      </trkpt>
      <trkpt lat="59.9830801691" lon="23.4052701302">
        <ele>18.8</ele>
        <time>2012-03-06T18:45:18Z</time>
      </trkpt>
      <trkpt lat="59.9831095058" lon="23.4053266243">
        <ele>18.8</ele>
        <time>2012-03-06T18:45:19Z</time>
      </trkpt>
      <trkpt lat="59.9832240864" lon="23.4055706214">
        <ele>18.8</ele>
        <time>2012-03-06T18:45:23Z</time>
      </trkpt>
      <trkpt lat="59.9833321291" lon="23.4058255149">
        <ele>18.8</ele>
        <time>2012-03-06T18:45:27Z</time>
      </trkpt>
      <trkpt lat="59.9833842645" lon="23.4059585357">
        <ele>18.8</ele>
        <time>2012-03-06T18:45:29Z</time>
      </trkpt>
      <trkpt lat="59.98350488" lon="23.4062946499">
        <ele>18.8</ele>
        <time>2012-03-06T18:45:34Z</time>
      </trkpt>
      <trkpt lat="59.9835280979" lon="23.4063598611">
        <ele>18.8</ele>
        <time>2012-03-06T18:45:35Z</time>
      </trkpt>
      <trkpt lat="59.9835932252" lon="23.4065560813">
        <ele>18.8</ele>
        <time>2012-03-06T18:45:38Z</time>
      </trkpt>
      <trkpt lat="59.9837059618" lon="23.4068859091">
        <ele>18.8</ele>
        <time>2012-03-06T18:45:43Z</time>
      </trkpt>
      <trkpt lat="59.9837254916" lon="23.406954976">
        <ele>18.8</ele>
        <time>2012-03-06T18:45:44Z</time>
      </trkpt>
      <trkpt lat="59.9837704186" lon="23.407089254">
        <ele>18.8</ele>
        <time>2012-03-06T18:45:46Z</time>
      </trkpt>
      <trkpt lat="59.983860524" lon="23.4073556308">
        <ele>18.8</ele>
        <time>2012-03-06T18:45:51Z</time>
      </trkpt>
      <trkpt lat="59.9838696603" lon="23.4073723108">
        <ele>18.8</ele>
        <time>2012-03-06T18:45:55Z</time>
      </trkpt>
      <trkpt lat="59.9838829875" lon="23.4074529446">
        <ele>18.8</ele>
        <time>2012-03-06T18:46:18Z</time>
      </trkpt>
      <trkpt lat="59.9838891063" lon="23.4075140487">
        <ele>18.8</ele>
        <time>2012-03-06T18:46:21Z</time>
      </trkpt>
      <trkpt lat="59.9839264058" lon="23.4075860492">
        <ele>18.8</ele>
        <time>2012-03-06T18:46:27Z</time>
      </trkpt>
      <trkpt lat="59.9839335304" lon="23.4075999632">
        <ele>18.8</ele>
        <time>2012-03-06T18:46:28Z</time>
      </trkpt>
      <trkpt lat="59.9839872584" lon="23.4076755679">
        <ele>18.8</ele>
        <time>2012-03-06T18:46:33Z</time>
      </trkpt>
      <trkpt lat="59.9840315986" lon="23.4078317227">
        <ele>18.8</ele>
        <time>2012-03-06T18:46:40Z</time>
      </trkpt>
      <trkpt lat="59.9840664673" lon="23.4079851115">
        <ele>18.8</ele>
        <time>2012-03-06T18:46:47Z</time>
      </trkpt>
      <trkpt lat="59.9840813871" lon="23.4080129394">
        <ele>18.8</ele>
        <time>2012-03-06T18:46:49Z</time>
      </trkpt>
      <trkpt lat="59.9840986538" lon="23.4081349798">
        <ele>18.8</ele>
        <time>2012-03-06T18:46:55Z</time>
      </trkpt>
      <trkpt lat="59.9841424912" lon="23.4083239917">
        <ele>18.8</ele>
        <time>2012-03-06T18:47:05Z</time>
      </trkpt>
      <trkpt lat="59.9841431617" lon="23.4083457008">
        <ele>18.8</ele>
        <time>2012-03-06T18:47:06Z</time>
      </trkpt>
      <trkpt lat="59.9841438323" lon="23.408361375">
        <ele>18.8</ele>
        <time>2012-03-06T18:47:07Z</time>
      </trkpt>
      <trkpt lat="59.9841660443" lon="23.4084557552">
        <ele>18.8</ele>
        <time>2012-03-06T18:47:12Z</time>
      </trkpt>
      <trkpt lat="59.9841929502" lon="23.4086054559">
        <ele>18.8</ele>
        <time>2012-03-06T18:47:20Z</time>
      </trkpt>
      <trkpt lat="59.9842283218" lon="23.4087801347">
        <ele>18.8</ele>
        <time>2012-03-06T18:47:29Z</time>
      </trkpt>
      <trkpt lat="59.9842679682" lon="23.4089700685">
        <ele>17.6</ele>
        <time>2012-03-06T18:47:39Z</time>
      </trkpt>
      <trkpt lat="59.9842913537" lon="23.4091273968">
        <ele>17</ele>
        <time>2012-03-06T18:47:47Z</time>
      </trkpt>
      <trkpt lat="59.9843011605" lon="23.4091871598">
        <ele>17</ele>
        <time>2012-03-06T18:47:50Z</time>
      </trkpt>
      <trkpt lat="59.9843130628" lon="23.4092626807">
        <ele>16.8</ele>
        <time>2012-03-06T18:47:54Z</time>
      </trkpt>
      <trkpt lat="59.984353715" lon="23.409473234">
        <ele>16.8</ele>
        <time>2012-03-06T18:48:05Z</time>
      </trkpt>
      <trkpt lat="59.9843842252" lon="23.4096160616">
        <ele>16.8</ele>
        <time>2012-03-06T18:48:12Z</time>
      </trkpt>
      <trkpt lat="59.9844284816" lon="23.4098550295">
        <ele>16.6</ele>
        <time>2012-03-06T18:48:23Z</time>
      </trkpt>
      <trkpt lat="59.9844552198" lon="23.4100540997">
        <ele>16.6</ele>
        <time>2012-03-06T18:48:31Z</time>
      </trkpt>
      <trkpt lat="59.9844858138" lon="23.4101751343">
        <ele>16.6</ele>
        <time>2012-03-06T18:48:38Z</time>
      </trkpt>
      <trkpt lat="59.984461171" lon="23.4101002001">
        <ele>16.6</ele>
        <time>2012-03-06T18:48:54Z</time>
      </trkpt>
      <trkpt lat="59.9844595784" lon="23.4100601346">
        <ele>16.6</ele>
        <time>2012-03-06T18:48:56Z</time>
      </trkpt>
      <trkpt lat="59.9844298227" lon="23.4099232582">
        <ele>16.6</ele>
        <time>2012-03-06T18:49:04Z</time>
      </trkpt>
      <trkpt lat="59.9844024139" lon="23.409788142">
        <ele>16.6</ele>
        <time>2012-03-06T18:49:12Z</time>
      </trkpt>
      <trkpt lat="59.9843863206" lon="23.409721925">
        <ele>16.6</ele>
        <time>2012-03-06T18:49:18Z</time>
      </trkpt>
      <trkpt lat="59.9843829679" lon="23.4096952705">
        <ele>16.6</ele>
        <time>2012-03-06T18:49:24Z</time>
      </trkpt>
      <trkpt lat="59.9843807048" lon="23.4096781715">
        <ele>16.6</ele>
        <time>2012-03-06T18:49:30Z</time>
      </trkpt>
      <trkpt lat="59.9843677966" lon="23.4096158101">
        <ele>16.6</ele>
        <time>2012-03-06T18:49:40Z</time>
      </trkpt>
      <trkpt lat="59.9843594985" lon="23.409588988">
        <ele>16.6</ele>
        <time>2012-03-06T18:50:11Z</time>
      </trkpt>
      <trkpt lat="59.9843624322" lon="23.4095884851">
        <ele>16.6</ele>
        <time>2012-03-06T18:50:17Z</time>
      </trkpt>
      <trkpt lat="59.984299065" lon="23.4092800312">
        <ele>16.6</ele>
        <time>2012-03-06T18:50:22Z</time>
      </trkpt>
      <trkpt lat="59.9842279865" lon="23.4089471021">
        <ele>16.6</ele>
        <time>2012-03-06T18:50:26Z</time>
      </trkpt>
      <trkpt lat="59.9841531362" lon="23.4086118261">
        <ele>16.6</ele>
        <time>2012-03-06T18:50:30Z</time>
      </trkpt>
      <trkpt lat="59.9840785373" lon="23.4082818307">
        <ele>16.6</ele>
        <time>2012-03-06T18:50:34Z</time>
      </trkpt>
      <trkpt lat="59.9840612705" lon="23.4081980117">
        <ele>16.6</ele>
        <time>2012-03-06T18:50:35Z</time>
      </trkpt>
      <trkpt lat="59.9839489531" lon="23.407801967">
        <ele>16.6</ele>
        <time>2012-03-06T18:50:40Z</time>
      </trkpt>
      <trkpt lat="59.9838476997" lon="23.4075002186">
        <ele>16.6</ele>
        <time>2012-03-06T18:50:44Z</time>
      </trkpt>
      <trkpt lat="59.9837988333" lon="23.4073517751">
        <ele>16.6</ele>
        <time>2012-03-06T18:50:46Z</time>
      </trkpt>
      <trkpt lat="59.9837017709" lon="23.4070570675">
        <ele>16.6</ele>
        <time>2012-03-06T18:50:50Z</time>
      </trkpt>
      <trkpt lat="59.9835980029" lon="23.406760013">
        <ele>16.8</ele>
        <time>2012-03-06T18:50:54Z</time>
      </trkpt>
      <trkpt lat="59.983442854" lon="23.4063369785">
        <ele>17.8</ele>
        <time>2012-03-06T18:51:00Z</time>
      </trkpt>
      <trkpt lat="59.9832769762" lon="23.4059079928">
        <ele>18.2</ele>
        <time>2012-03-06T18:51:06Z</time>
      </trkpt>
      <trkpt lat="59.9832499026" lon="23.405842614">
        <ele>18.2</ele>
        <time>2012-03-06T18:51:07Z</time>
      </trkpt>
      <trkpt lat="59.9831059854" lon="23.4055107746">
        <ele>18.4</ele>
        <time>2012-03-06T18:51:12Z</time>
      </trkpt>
      <trkpt lat="59.9830758944" lon="23.4054401152">
        <ele>18.4</ele>
        <time>2012-03-06T18:51:13Z</time>
      </trkpt>
      <trkpt lat="59.982956117" lon="23.4051904184">
        <ele>18.6</ele>
        <time>2012-03-06T18:51:17Z</time>
      </trkpt>
      <trkpt lat="59.9828715437" lon="23.4050024962">
        <ele>18.6</ele>
        <time>2012-03-06T18:51:20Z</time>
      </trkpt>
      <trkpt lat="59.9827489165" lon="23.4047522126">
        <ele>18.8</ele>
        <time>2012-03-06T18:51:24Z</time>
      </trkpt>
      <trkpt lat="59.9826081844" lon="23.4044593491">
        <ele>19.6</ele>
        <time>2012-03-06T18:51:29Z</time>
      </trkpt>
      <trkpt lat="59.9824166579" lon="23.4041041241">
        <ele>20.2</ele>
        <time>2012-03-06T18:51:35Z</time>
      </trkpt>
      <trkpt lat="59.9822640235" lon="23.4038257612">
        <ele>20.4</ele>
        <time>2012-03-06T18:51:40Z</time>
      </trkpt>
      <trkpt lat="59.982135529" lon="23.403616549">
        <ele>20.4</ele>
        <time>2012-03-06T18:51:44Z</time>
      </trkpt>
      <trkpt lat="59.9819652926" lon="23.4033592247">
        <ele>20.6</ele>
        <time>2012-03-06T18:51:49Z</time>
      </trkpt>
      <trkpt lat="59.9817948048" lon="23.4031005592">
        <ele>20.6</ele>
        <time>2012-03-06T18:51:54Z</time>
      </trkpt>
      <trkpt lat="59.9816291784" lon="23.4028299077">
        <ele>20.6</ele>
        <time>2012-03-06T18:51:59Z</time>
      </trkpt>
      <trkpt lat="59.981598333" lon="23.4027836396">
        <ele>20.6</ele>
        <time>2012-03-06T18:52:00Z</time>
      </trkpt>
      <trkpt lat="59.9815019412" lon="23.4026324301">
        <ele>20.6</ele>
        <time>2012-03-06T18:52:03Z</time>
      </trkpt>
      <trkpt lat="59.9813513185" lon="23.4024021793">
        <ele>20.6</ele>
        <time>2012-03-06T18:52:08Z</time>
      </trkpt>
      <trkpt lat="59.9814531585" lon="23.4025425762">
        <ele>20.6</ele>
        <time>2012-03-06T18:52:13Z</time>
      </trkpt>
      <trkpt lat="59.9816031107" lon="23.4027662053">
        <ele>20.6</ele>
        <time>2012-03-06T18:52:17Z</time>
      </trkpt>
      <trkpt lat="59.9817499616" lon="23.4029660298">
        <ele>20.8</ele>
        <time>2012-03-06T18:52:21Z</time>
      </trkpt>
      <trkpt lat="59.981933609" lon="23.4032122062">
        <ele>20.6</ele>
        <time>2012-03-06T18:52:26Z</time>
      </trkpt>
      <trkpt lat="59.9821014147" lon="23.403470201">
        <ele>19.8</ele>
        <time>2012-03-06T18:52:31Z</time>
      </trkpt>
      <trkpt lat="59.9821650333" lon="23.403569778">
        <ele>19.6</ele>
        <time>2012-03-06T18:52:33Z</time>
      </trkpt>
      <trkpt lat="59.9822277299" lon="23.4036745518">
        <ele>19.4</ele>
        <time>2012-03-06T18:52:35Z</time>
      </trkpt>
      <trkpt lat="59.9823903388" lon="23.4039432755">
        <ele>19</ele>
        <time>2012-03-06T18:52:40Z</time>
      </trkpt>
      <trkpt lat="59.9825380279" lon="23.4042149329">
        <ele>19</ele>
        <time>2012-03-06T18:52:45Z</time>
      </trkpt>
      <trkpt lat="59.9825698791" lon="23.4042700019">
        <ele>18.8</ele>
        <time>2012-03-06T18:52:46Z</time>
      </trkpt>
      <trkpt lat="59.9827539456" lon="23.40461542">
        <ele>18.8</ele>
        <time>2012-03-06T18:52:52Z</time>
      </trkpt>
      <trkpt lat="59.9827828632" lon="23.4046803798">
        <ele>18.8</ele>
        <time>2012-03-06T18:52:53Z</time>
      </trkpt>
      <trkpt lat="59.9829585478" lon="23.4050382031">
        <ele>18.8</ele>
        <time>2012-03-06T18:52:59Z</time>
      </trkpt>
      <trkpt lat="59.9829864595" lon="23.405097966">
        <ele>18.8</ele>
        <time>2012-03-06T18:53:00Z</time>
      </trkpt>
      <trkpt lat="59.9831773992" lon="23.4055517621">
        <ele>18.6</ele>
        <time>2012-03-06T18:53:07Z</time>
      </trkpt>
      <trkpt lat="59.9833463783" lon="23.4059567755">
        <ele>18.6</ele>
        <time>2012-03-06T18:53:13Z</time>
      </trkpt>
      <trkpt lat="59.9834198037" lon="23.4061686699">
        <ele>18.6</ele>
        <time>2012-03-06T18:53:16Z</time>
      </trkpt>
      <trkpt lat="59.9835679957" lon="23.4065803889">
        <ele>18.6</ele>
        <time>2012-03-06T18:53:22Z</time>
      </trkpt>
      <trkpt lat="59.9836204664" lon="23.4067274912">
        <ele>18.6</ele>
        <time>2012-03-06T18:53:24Z</time>
      </trkpt>
      <trkpt lat="59.9837384836" lon="23.4070763459">
        <ele>18.6</ele>
        <time>2012-03-06T18:53:29Z</time>
      </trkpt>
      <trkpt lat="59.9837610309" lon="23.4071480111">
        <ele>18.6</ele>
        <time>2012-03-06T18:53:30Z</time>
      </trkpt>
      <trkpt lat="59.9838829875" lon="23.4074888192">
        <ele>18.6</ele>
        <time>2012-03-06T18:53:35Z</time>
      </trkpt>
      <trkpt lat="59.9839041937" lon="23.4075604844">
        <ele>18.6</ele>
        <time>2012-03-06T18:53:36Z</time>
      </trkpt>
      <trkpt lat="59.9839931257" lon="23.4078578742">
        <ele>18.6</ele>
        <time>2012-03-06T18:53:40Z</time>
      </trkpt>
      <trkpt lat="59.9840305928" lon="23.4080069882">
        <ele>18.6</ele>
        <time>2012-03-06T18:53:42Z</time>
      </trkpt>
      <trkpt lat="59.9840494521" lon="23.4080903043">
        <ele>18.6</ele>
        <time>2012-03-06T18:53:43Z</time>
      </trkpt>
      <trkpt lat="59.9841023419" lon="23.4083099101">
        <ele>18.6</ele>
        <time>2012-03-06T18:53:46Z</time>
      </trkpt>
      <trkpt lat="59.9841354504" lon="23.4084249936">
        <ele>18.6</ele>
        <time>2012-03-06T18:53:50Z</time>
      </trkpt>
      <trkpt lat="59.9841153338" lon="23.408403955">
        <ele>18.6</ele>
        <time>2012-03-06T18:54:05Z</time>
      </trkpt>
      <trkpt lat="59.9840440038" lon="23.4081530009">
        <ele>18.6</ele>
        <time>2012-03-06T18:54:15Z</time>
      </trkpt>
      <trkpt lat="59.983992539" lon="23.4079667551">
        <ele>18.6</ele>
        <time>2012-03-06T18:54:23Z</time>
      </trkpt>
      <trkpt lat="59.9839427505" lon="23.4077896456">
        <ele>18.6</ele>
        <time>2012-03-06T18:54:30Z</time>
      </trkpt>
      <trkpt lat="59.9838845801" lon="23.407607004">
        <ele>18.6</ele>
        <time>2012-03-06T18:54:37Z</time>
      </trkpt>
      <trkpt lat="59.9837941394" lon="23.4073509369">
        <ele>18.6</ele>
        <time>2012-03-06T18:54:47Z</time>
      </trkpt>
      <trkpt lat="59.9837403276" lon="23.4071874061">
        <ele>18.6</ele>
        <time>2012-03-06T18:54:54Z</time>
      </trkpt>
      <trkpt lat="59.9836784692" lon="23.4070040101">
        <ele>18.6</ele>
        <time>2012-03-06T18:55:02Z</time>
      </trkpt>
      <trkpt lat="59.9835827479" lon="23.406719696">
        <ele>18.6</ele>
        <time>2012-03-06T18:55:13Z</time>
      </trkpt>
      <trkpt lat="59.9834991803" lon="23.4064880203">
        <ele>18.6</ele>
        <time>2012-03-06T18:55:22Z</time>
      </trkpt>
      <trkpt lat="59.983421983" lon="23.4063110784">
        <ele>18.6</ele>
        <time>2012-03-06T18:55:30Z</time>
      </trkpt>
      <trkpt lat="59.983339086" lon="23.4061038778">
        <ele>18.6</ele>
        <time>2012-03-06T18:55:39Z</time>
      </trkpt>
      <trkpt lat="59.9832721985" lon="23.405953758">
        <ele>18.6</ele>
        <time>2012-03-06T18:55:46Z</time>
      </trkpt>
      <trkpt lat="59.9832644033" lon="23.4059303725">
        <ele>18.6</ele>
        <time>2012-03-06T18:55:47Z</time>
      </trkpt>
      <trkpt lat="59.9832200631" lon="23.4058269399">
        <ele>18.6</ele>
        <time>2012-03-06T18:55:52Z</time>
      </trkpt>
      <trkpt lat="59.9831944144" lon="23.4057622316">
        <ele>18.6</ele>
        <time>2012-03-06T18:55:55Z</time>
      </trkpt>
      <trkpt lat="59.9831494875" lon="23.4056499141">
        <ele>18.6</ele>
        <time>2012-03-06T18:56:00Z</time>
      </trkpt>
      <trkpt lat="59.9830567836" lon="23.4054519337">
        <ele>18.6</ele>
        <time>2012-03-06T18:56:09Z</time>
      </trkpt>
      <trkpt lat="59.9829748087" lon="23.4052724772">
        <ele>18.6</ele>
        <time>2012-03-06T18:56:17Z</time>
      </trkpt>
      <trkpt lat="59.9829002936" lon="23.4051143945">
        <ele>18.6</ele>
        <time>2012-03-06T18:56:25Z</time>
      </trkpt>
      <trkpt lat="59.9828630779" lon="23.4050371134">
        <ele>18.6</ele>
        <time>2012-03-06T18:56:29Z</time>
      </trkpt>
      <trkpt lat="59.98277138" lon="23.4048564835">
        <ele>18.6</ele>
        <time>2012-03-06T18:56:37Z</time>
      </trkpt>
      <trkpt lat="59.9826986251" lon="23.4046986523">
        <ele>18.6</ele>
        <time>2012-03-06T18:56:44Z</time>
      </trkpt>
      <trkpt lat="59.9826118724" lon="23.404531601">
        <ele>18.6</ele>
        <time>2012-03-06T18:56:52Z</time>
      </trkpt>
      <trkpt lat="59.9825603237" lon="23.4044308506">
        <ele>18.6</ele>
        <time>2012-03-06T18:56:57Z</time>
      </trkpt>
      <trkpt lat="59.9825221861" lon="23.4043511387">
        <ele>18.6</ele>
        <time>2012-03-06T18:57:01Z</time>
      </trkpt>
      <trkpt lat="59.9824397082" lon="23.4042172798">
        <ele>18.6</ele>
        <time>2012-03-06T18:57:08Z</time>
      </trkpt>
      <trkpt lat="59.9823511953" lon="23.4040607059">
        <ele>18.6</ele>
        <time>2012-03-06T18:57:16Z</time>
      </trkpt>
      <trkpt lat="59.9822970482" lon="23.4039771384">
        <ele>18.6</ele>
        <time>2012-03-06T18:57:21Z</time>
      </trkpt>
      <trkpt lat="59.98222027" lon="23.403843028">
        <ele>18.6</ele>
        <time>2012-03-06T18:57:28Z</time>
      </trkpt>
      <trkpt lat="59.9821750916" lon="23.4037639866">
        <ele>18.6</ele>
        <time>2012-03-06T18:57:32Z</time>
      </trkpt>
      <trkpt lat="59.9821084555" lon="23.4036398507">
        <ele>18.6</ele>
        <time>2012-03-06T18:57:38Z</time>
      </trkpt>
      <trkpt lat="59.9820595052" lon="23.4035710353">
        <ele>18.6</ele>
        <time>2012-03-06T18:57:42Z</time>
      </trkpt>
      <trkpt lat="59.9819501214" lon="23.4033983682">
        <ele>17.6</ele>
        <time>2012-03-06T18:57:51Z</time>
      </trkpt>
      <trkpt lat="59.9817088065" lon="23.4030289778">
        <ele>16.6</ele>
        <time>2012-03-06T18:58:11Z</time>
      </trkpt>
      <trkpt lat="59.9816301843" lon="23.4029150678">
        <ele>16.6</ele>
        <time>2012-03-06T18:58:17Z</time>
      </trkpt>
      <trkpt lat="59.9816192878" lon="23.4028903412">
        <ele>16.6</ele>
        <time>2012-03-06T18:58:18Z</time>
      </trkpt>
      <trkpt lat="59.9815467005" lon="23.4027920215">
        <ele>16.6</ele>
        <time>2012-03-06T18:58:24Z</time>
      </trkpt>
      <trkpt lat="59.9814720178" lon="23.4026783629">
        <ele>16.6</ele>
        <time>2012-03-06T18:58:30Z</time>
      </trkpt>
      <trkpt lat="59.9813692557" lon="23.4025501199">
        <ele>16.6</ele>
        <time>2012-03-06T18:58:38Z</time>
      </trkpt>
      <trkpt lat="59.9813588622" lon="23.4025358706">
        <ele>16.6</ele>
        <time>2012-03-06T18:58:39Z</time>
      </trkpt>
      <trkpt lat="59.9812472153" lon="23.4023854155">
        <ele>16.6</ele>
        <time>2012-03-06T18:58:48Z</time>
      </trkpt>
      <trkpt lat="59.9811715267" lon="23.4022583459">
        <ele>16.6</ele>
        <time>2012-03-06T18:58:55Z</time>
      </trkpt>
      <trkpt lat="59.9811635639" lon="23.4022467789">
        <ele>16.6</ele>
        <time>2012-03-06T18:58:56Z</time>
      </trkpt>
      <trkpt lat="59.981164905" lon="23.4022283387">
        <ele>16.6</ele>
        <time>2012-03-06T18:59:08Z</time>
      </trkpt>
      <trkpt lat="59.9812383304" lon="23.4022857548">
        <ele>16.6</ele>
        <time>2012-03-06T18:59:11Z</time>
      </trkpt>
      <trkpt lat="59.9814014422" lon="23.4024706595">
        <ele>16.6</ele>
        <time>2012-03-06T18:59:15Z</time>
      </trkpt>
      <trkpt lat="59.9815711757" lon="23.402676016">
        <ele>16.6</ele>
        <time>2012-03-06T18:59:19Z</time>
      </trkpt>
      <trkpt lat="59.9816121632" lon="23.402734354">
        <ele>16.6</ele>
        <time>2012-03-06T18:59:20Z</time>
      </trkpt>
      <trkpt lat="59.9818341997" lon="23.4030205121">
        <ele>16.6</ele>
        <time>2012-03-06T18:59:25Z</time>
      </trkpt>
      <trkpt lat="59.9818759416" lon="23.4030810294">
        <ele>16.6</ele>
        <time>2012-03-06T18:59:26Z</time>
      </trkpt>
      <trkpt lat="59.9820437472" lon="23.403324356">
        <ele>16.6</ele>
        <time>2012-03-06T18:59:30Z</time>
      </trkpt>
      <trkpt lat="59.9822090383" lon="23.4035705324">
        <ele>16.6</ele>
        <time>2012-03-06T18:59:34Z</time>
      </trkpt>
      <trkpt lat="59.9823584037" lon="23.4038317962">
        <ele>16.6</ele>
        <time>2012-03-06T18:59:38Z</time>
      </trkpt>
      <trkpt lat="59.9825073501" lon="23.4040810739">
        <ele>16.6</ele>
        <time>2012-03-06T18:59:42Z</time>
      </trkpt>
      <trkpt lat="59.982580105" lon="23.404206551">
        <ele>16.6</ele>
        <time>2012-03-06T18:59:44Z</time>
      </trkpt>
      <trkpt lat="59.9827156403" lon="23.4044515539">
        <ele>16.6</ele>
        <time>2012-03-06T18:59:48Z</time>
      </trkpt>
      <trkpt lat="59.9828764052" lon="23.4047638635">
        <ele>16.6</ele>
        <time>2012-03-06T18:59:53Z</time>
      </trkpt>
      <trkpt lat="59.9829954281" lon="23.4050281448">
        <ele>16.6</ele>
        <time>2012-03-06T18:59:57Z</time>
      </trkpt>
      <trkpt lat="59.9831328075" lon="23.4053742334">
        <ele>16.6</ele>
        <time>2012-03-06T19:00:02Z</time>
      </trkpt>
      <trkpt lat="59.9831610545" lon="23.4054466531">
        <ele>16.6</ele>
        <time>2012-03-06T19:00:03Z</time>
      </trkpt>
      <trkpt lat="59.9833651537" lon="23.405944957">
        <ele>16.6</ele>
        <time>2012-03-06T19:00:10Z</time>
      </trkpt>
      <trkpt lat="59.9833877849" lon="23.4060220705">
        <ele>16.6</ele>
        <time>2012-03-06T19:00:11Z</time>
      </trkpt>
      <trkpt lat="59.9834638087" lon="23.4062508964">
        <ele>16.6</ele>
        <time>2012-03-06T19:00:14Z</time>
      </trkpt>
      <trkpt lat="59.983569253" lon="23.4065521418">
        <ele>16.6</ele>
        <time>2012-03-06T19:00:18Z</time>
      </trkpt>
      <trkpt lat="59.9836981666" lon="23.4069289083">
        <ele>16.6</ele>
        <time>2012-03-06T19:00:23Z</time>
      </trkpt>
      <trkpt lat="59.9837745257" lon="23.4071616736">
        <ele>16.6</ele>
        <time>2012-03-06T19:00:26Z</time>
      </trkpt>
      <trkpt lat="59.9839001704" lon="23.407551432">
        <ele>16.6</ele>
        <time>2012-03-06T19:00:31Z</time>
      </trkpt>
      <trkpt lat="59.9840081293" lon="23.4079444593">
        <ele>16.6</ele>
        <time>2012-03-06T19:00:36Z</time>
      </trkpt>
      <trkpt lat="59.9840963069" lon="23.4082788132">
        <ele>17</ele>
        <time>2012-03-06T19:00:40Z</time>
      </trkpt>
      <trkpt lat="59.9841211173" lon="23.4083630513">
        <ele>17.2</ele>
        <time>2012-03-06T19:00:41Z</time>
      </trkpt>
      <trkpt lat="59.9841603446" lon="23.4085427593">
        <ele>17.4</ele>
        <time>2012-03-06T19:00:43Z</time>
      </trkpt>
      <trkpt lat="59.9841942913" lon="23.4086746904">
        <ele>17.6</ele>
        <time>2012-03-06T19:00:45Z</time>
      </trkpt>
      <trkpt lat="59.9841971411" lon="23.4087062063">
        <ele>18</ele>
        <time>2012-03-06T19:00:51Z</time>
      </trkpt>
      <trkpt lat="59.9841610152" lon="23.4086160171">
        <ele>18.2</ele>
        <time>2012-03-06T19:01:07Z</time>
      </trkpt>
      <trkpt lat="59.9841398089" lon="23.4085648037">
        <ele>17.6</ele>
        <time>2012-03-06T19:01:12Z</time>
      </trkpt>
      <trkpt lat="59.9841445866" lon="23.4085621215">
        <ele>17.2</ele>
        <time>2012-03-06T19:01:17Z</time>
      </trkpt>
      <trkpt lat="59.9841784495" lon="23.4087174381">
        <ele>16.4</ele>
        <time>2012-03-06T19:01:24Z</time>
      </trkpt>
      <trkpt lat="59.9841852388" lon="23.4087359621">
        <ele>16.2</ele>
        <time>2012-03-06T19:01:25Z</time>
      </trkpt>
      <trkpt lat="59.9842071994" lon="23.4088552365">
        <ele>15.6</ele>
        <time>2012-03-06T19:01:30Z</time>
      </trkpt>
      <trkpt lat="59.9842144079" lon="23.4088778676">
        <ele>15.4</ele>
        <time>2012-03-06T19:01:31Z</time>
      </trkpt>
      <trkpt lat="59.9842455047" lon="23.4090033447">
        <ele>15</ele>
        <time>2012-03-06T19:01:36Z</time>
      </trkpt>
      <trkpt lat="59.984299568" lon="23.409256059">
        <ele>14.8</ele>
        <time>2012-03-06T19:01:46Z</time>
      </trkpt>
      <trkpt lat="59.9843438244" lon="23.4094849687">
        <ele>14.6</ele>
        <time>2012-03-06T19:01:55Z</time>
      </trkpt>
      <trkpt lat="59.9844066048" lon="23.4097721326">
        <ele>14.6</ele>
        <time>2012-03-06T19:02:07Z</time>
      </trkpt>
      <trkpt lat="59.9844584888" lon="23.4099832726">
        <ele>13.4</ele>
        <time>2012-03-06T19:02:16Z</time>
      </trkpt>
      <trkpt lat="59.9845075229" lon="23.4099814286">
        <ele>13.2</ele>
        <time>2012-03-06T19:02:20Z</time>
      </trkpt>
      <trkpt lat="59.9845392065" lon="23.4098651716">
        <ele>13</ele>
        <time>2012-03-06T19:02:25Z</time>
      </trkpt>
      <trkpt lat="59.9846273841" lon="23.4097002997">
        <ele>12.8</ele>
        <time>2012-03-06T19:02:34Z</time>
      </trkpt>
      <trkpt lat="59.9846538709" lon="23.4095086894">
        <ele>12.6</ele>
        <time>2012-03-06T19:02:42Z</time>
      </trkpt>
      <trkpt lat="59.9846744903" lon="23.4093561389">
        <ele>12.6</ele>
        <time>2012-03-06T19:02:48Z</time>
      </trkpt>
      <trkpt lat="59.9847394501" lon="23.4088454297">
        <ele>12.6</ele>
        <time>2012-03-06T19:03:08Z</time>
      </trkpt>
      <trkpt lat="59.9847753246" lon="23.4085902847">
        <ele>12.6</ele>
        <time>2012-03-06T19:03:18Z</time>
      </trkpt>
      <trkpt lat="59.9847953573" lon="23.4084540788">
        <ele>12.6</ele>
        <time>2012-03-06T19:03:24Z</time>
      </trkpt>
      <trkpt lat="59.9848064215" lon="23.4083802342">
        <ele>12.6</ele>
        <time>2012-03-06T19:03:27Z</time>
      </trkpt>
      <trkpt lat="59.9848189105" lon="23.4082809925">
        <ele>12.6</ele>
        <time>2012-03-06T19:03:31Z</time>
      </trkpt>
      <trkpt lat="59.9848416254" lon="23.4080792402">
        <ele>12.6</ele>
        <time>2012-03-06T19:03:39Z</time>
      </trkpt>
      <trkpt lat="59.9848734767" lon="23.4078837743">
        <ele>12.6</ele>
        <time>2012-03-06T19:03:46Z</time>
      </trkpt>
      <trkpt lat="59.9849439684" lon="23.4075199998">
        <ele>12.6</ele>
        <time>2012-03-06T19:03:58Z</time>
      </trkpt>
      <trkpt lat="59.9849849559" lon="23.4071676248">
        <ele>13.6</ele>
        <time>2012-03-06T19:04:05Z</time>
      </trkpt>
      <trkpt lat="59.9850006301" lon="23.4070174211">
        <ele>14</ele>
        <time>2012-03-06T19:04:08Z</time>
      </trkpt>
      <trkpt lat="59.9850930824" lon="23.4069178441">
        <ele>14.6</ele>
        <time>2012-03-06T19:04:13Z</time>
      </trkpt>
      <trkpt lat="59.985224343" lon="23.4069250526">
        <ele>15.6</ele>
        <time>2012-03-06T19:04:19Z</time>
      </trkpt>
      <trkpt lat="59.9853429469" lon="23.4069573229">
        <ele>16.2</ele>
        <time>2012-03-06T19:04:24Z</time>
      </trkpt>
      <trkpt lat="59.9854638977" lon="23.4070118891">
        <ele>17.4</ele>
        <time>2012-03-06T19:04:29Z</time>
      </trkpt>
      <trkpt lat="59.9856280991" lon="23.4070878291">
        <ele>18</ele>
        <time>2012-03-06T19:04:35Z</time>
      </trkpt>
      <trkpt lat="59.9857164443" lon="23.4071661998">
        <ele>19</ele>
        <time>2012-03-06T19:04:39Z</time>
      </trkpt>
      <trkpt lat="59.985863379" lon="23.40728933">
        <ele>19.8</ele>
        <time>2012-03-06T19:04:45Z</time>
      </trkpt>
      <trkpt lat="59.9860470265" lon="23.4073673654">
        <ele>20.4</ele>
        <time>2012-03-06T19:04:52Z</time>
      </trkpt>
      <trkpt lat="59.9862356192" lon="23.4073824529">
        <ele>20.6</ele>
        <time>2012-03-06T19:04:59Z</time>
      </trkpt>
      <trkpt lat="59.9863742558" lon="23.4073738195">
        <ele>20.8</ele>
        <time>2012-03-06T19:05:04Z</time>
      </trkpt>
      <trkpt lat="59.9865644412" lon="23.4073586483">
        <ele>20.8</ele>
        <time>2012-03-06T19:05:11Z</time>
      </trkpt>
      <trkpt lat="59.9867251222" lon="23.4073380288">
        <ele>20.8</ele>
        <time>2012-03-06T19:05:17Z</time>
      </trkpt>
      <trkpt lat="59.986918325" lon="23.4073274676">
        <ele>20.8</ele>
        <time>2012-03-06T19:05:24Z</time>
      </trkpt>
      <trkpt lat="59.9870932552" lon="23.4072650224">
        <ele>20.8</ele>
        <time>2012-03-06T19:05:30Z</time>
      </trkpt>
      <trkpt lat="59.9872779923" lon="23.4071111308">
        <ele>20.8</ele>
        <time>2012-03-06T19:05:37Z</time>
      </trkpt>
      <trkpt lat="59.9872976898" lon="23.4070823808">
        <ele>20.8</ele>
        <time>2012-03-06T19:05:38Z</time>
      </trkpt>
      <trkpt lat="59.9874694349" lon="23.4068886751">
        <ele>20.8</ele>
        <time>2012-03-06T19:05:45Z</time>
      </trkpt>
      <trkpt lat="59.9875887932" lon="23.4067349511">
        <ele>20.8</ele>
        <time>2012-03-06T19:05:50Z</time>
      </trkpt>
      <trkpt lat="59.9878098239" lon="23.4064685743">
        <ele>20.8</ele>
        <time>2012-03-06T19:06:01Z</time>
      </trkpt>
      <trkpt lat="59.9879354685" lon="23.4063393254">
        <ele>20.8</ele>
        <time>2012-03-06T19:06:08Z</time>
      </trkpt>
      <trkpt lat="59.9880581796" lon="23.4062902913">
        <ele>20.8</ele>
        <time>2012-03-06T19:06:14Z</time>
      </trkpt>
      <trkpt lat="59.9882112331" lon="23.4063122519">
        <ele>20.8</ele>
        <time>2012-03-06T19:06:20Z</time>
      </trkpt>
      <trkpt lat="59.9883723332" lon="23.4064034469">
        <ele>20.2</ele>
        <time>2012-03-06T19:06:26Z</time>
      </trkpt>
      <trkpt lat="59.98849144" lon="23.4065616972">
        <ele>19.6</ele>
        <time>2012-03-06T19:06:31Z</time>
      </trkpt>
      <trkpt lat="59.988591939" lon="23.4067070394">
        <ele>19.4</ele>
        <time>2012-03-06T19:06:36Z</time>
      </trkpt>
      <trkpt lat="59.9887001493" lon="23.4068420718">
        <ele>19.2</ele>
        <time>2012-03-06T19:06:41Z</time>
      </trkpt>
      <trkpt lat="59.988759996" lon="23.4069311714">
        <ele>19</ele>
        <time>2012-03-06T19:06:44Z</time>
      </trkpt>
      <trkpt lat="59.988841049" lon="23.4071237036">
        <ele>19</ele>
        <time>2012-03-06T19:06:49Z</time>
      </trkpt>
      <trkpt lat="59.988941548" lon="23.4073770046">
        <ele>18.8</ele>
        <time>2012-03-06T19:06:55Z</time>
      </trkpt>
      <trkpt lat="59.9890425499" lon="23.4075557067">
        <ele>18.8</ele>
        <time>2012-03-06T19:07:00Z</time>
      </trkpt>
      <trkpt lat="59.9891197472" lon="23.4076692815">
        <ele>18.8</ele>
        <time>2012-03-06T19:07:04Z</time>
      </trkpt>
      <trkpt lat="59.989233741" lon="23.4077864604">
        <ele>18.8</ele>
        <time>2012-03-06T19:07:09Z</time>
      </trkpt>
      <trkpt lat="59.9893396882" lon="23.4078951737">
        <ele>18.8</ele>
        <time>2012-03-06T19:07:14Z</time>
      </trkpt>
      <trkpt lat="59.98948151" lon="23.4080249255">
        <ele>18.2</ele>
        <time>2012-03-06T19:07:20Z</time>
      </trkpt>
      <trkpt lat="59.989626014" lon="23.4081794039">
        <ele>17.4</ele>
        <time>2012-03-06T19:07:26Z</time>
      </trkpt>
      <trkpt lat="59.9897628904" lon="23.4083664041">
        <ele>17.2</ele>
        <time>2012-03-06T19:07:32Z</time>
      </trkpt>
      <trkpt lat="59.9898870263" lon="23.4085942241">
        <ele>17</ele>
        <time>2012-03-06T19:07:38Z</time>
      </trkpt>
      <trkpt lat="59.9899902075" lon="23.4088363772">
        <ele>16.8</ele>
        <time>2012-03-06T19:07:44Z</time>
      </trkpt>
      <trkpt lat="59.9900973282" lon="23.409161092">
        <ele>16.8</ele>
        <time>2012-03-06T19:07:51Z</time>
      </trkpt>
      <trkpt lat="59.9902174408" lon="23.4095757446">
        <ele>16.8</ele>
        <time>2012-03-06T19:08:00Z</time>
      </trkpt>
      <trkpt lat="59.9901632099" lon="23.4092894189">
        <ele>16.8</ele>
        <time>2012-03-06T19:08:11Z</time>
      </trkpt>
      <trkpt lat="59.9901268325" lon="23.409166205">
        <ele>16.8</ele>
        <time>2012-03-06T19:08:14Z</time>
      </trkpt>
      <trkpt lat="59.9900840848" lon="23.4090276522">
        <ele>16.8</ele>
        <time>2012-03-06T19:08:17Z</time>
      </trkpt>
      <trkpt lat="59.9899874415" lon="23.4087620298">
        <ele>16.8</ele>
        <time>2012-03-06T19:08:23Z</time>
      </trkpt>
      <trkpt lat="59.9898895409" lon="23.4085393227">
        <ele>16.8</ele>
        <time>2012-03-06T19:08:28Z</time>
      </trkpt>
      <trkpt lat="59.9898269281" lon="23.4083509814">
        <ele>16.8</ele>
        <time>2012-03-06T19:08:33Z</time>
      </trkpt>
      <trkpt lat="59.9898574382" lon="23.4081669987">
        <ele>16.8</ele>
        <time>2012-03-06T19:08:37Z</time>
      </trkpt>
      <trkpt lat="59.9899731084" lon="23.4078710338">
        <ele>16.8</ele>
        <time>2012-03-06T19:08:43Z</time>
      </trkpt>
      <trkpt lat="59.9901031955" lon="23.4077751449">
        <ele>16.8</ele>
        <time>2012-03-06T19:08:48Z</time>
      </trkpt>
      <trkpt lat="59.990159019" lon="23.4077427069">
        <ele>16.8</ele>
        <time>2012-03-06T19:08:51Z</time>
      </trkpt>
    </trkseg>
  </trk>
</gpx>